Home > Products > Valid Products > TAF

000
FTUS42 KFFC 040546
TAFFTY
TAF
KFTY 040546Z 0406/0506 VRB03KT 1/4SM FG OVC002
      TEMPO 0406/0410 1/2SM FG
     FM041200 19005KT 3/4SM BR BKN003
     FM041400 21007KT 1SM BR BKN007
     FM041600 22011KT P6SM BKN012
     FM042000 22012G17KT P6SM BKN025
     FM050000 20008KT P6SM BKN012
     FM050500 20007KT 2SM -RA OVC013=



000
FTUS42 KFFC 040546
TAFPDK
TAF
KPDK 040546Z 0406/0506 14003KT 1/4SM FG OVC002
     FM041200 VRB03KT 1/2SM FG OVC003
     FM041400 21007KT 1SM BR BKN006
     FM041500 22008KT P6SM BKN012
     FM042000 22012G17KT P6SM BKN025
     FM050000 21008KT P6SM BKN012=



000
FTUS42 KFFC 040546
TAFFTY
TAF
KFTY 040546Z 0406/0506 VRB03KT 1/4SM FG OVC002
      TEMPO 0406/0410 1/2SM FG
     FM041200 19005KT 3/4SM BR BKN003
     FM041400 21007KT 1SM BR BKN007
     FM041600 22011KT P6SM BKN012
     FM042000 22012G17KT P6SM BKN025
     FM050000 20008KT P6SM BKN012
     FM050500 20007KT 2SM -RA OVC013=



000
FTUS42 KFFC 040546
TAFPDK
TAF
KPDK 040546Z 0406/0506 14003KT 1/4SM FG OVC002
     FM041200 VRB03KT 1/2SM FG OVC003
     FM041400 21007KT 1SM BR BKN006
     FM041500 22008KT P6SM BKN012
     FM042000 22012G17KT P6SM BKN025
     FM050000 21008KT P6SM BKN012=



000
FTUS42 KFFC 040546
TAFAHN
TAF
KAHN 040546Z 0406/0506 00000KT 1/4SM FG OVC002
     FM041400 21006KT 1/2SM FG BKN002
     FM041500 22007KT P6SM BKN006
     FM041800 22010KT P6SM BKN008
     FM042000 22012KT P6SM BKN015
     FM050000 21009KT P6SM BKN025
     FM050300 20008KT P6SM BKN012=



000
FTUS42 KFFC 040546
TAFCSG
TAF
KCSG 040546Z 0406/0506 20004KT P6SM BKN080
     FM040900 20007KT 3SM BR SCT045
     FM041400 21006KT P6SM BKN045
     FM050000 19006KT P6SM BKN030
     FM050300 20007KT P6SM BKN012=



000
FTUS42 KFFC 040546
TAFMCN
TAF
KMCN 040546Z 0406/0506 11003KT 1/4SM FG VV001
     FM040800 00000KT 1SM BR BKN003
     FM041200 20006KT 3SM BR BKN012
     FM041400 21010G15KT P6SM BKN035
     FM050000 20006KT P6SM BKN040=



000
FTUS42 KFFC 040546
TAFATL
TAF
KATL 040546Z 0406/0512 12005KT 1/4SM FG VV002
      TEMPO 0408/0412 1/2SM FG BKN004
     FM041200 20006KT 1/2SM FG BKN007
     FM041300 22008KT P6SM SCT004 BKN012
     FM041600 22010KT P6SM BKN012
     FM042000 22010G15KT P6SM SCT012 BKN025
     FM050000 20008KT P6SM BKN012
     FM050600 20007KT 2SM -RA OVC008=



000
FTUS42 KFFC 040546
TAFRYY
TAF
KRYY 040546Z 0406/0506 15005KT 1/4SM FG OVC003
     FM041200 19006KT 1/2SM FG BKN003
     FM041400 21008KT P6SM SCT005 BKN012
     FM041500 22010KT P6SM BKN012
     FM042000 22011KT P6SM BKN025
     FM050400 20007KT P6SM OVC012
     FM050500 20007KT 1SM -RA OVC012
      AMD NOT SKED TIL 041200=



000
FTUS42 KFFC 040546
TAFMCN
TAF
KMCN 040546Z 0406/0506 11003KT 1/4SM FG VV001
     FM040800 00000KT 1SM BR BKN003
     FM041200 20006KT 3SM BR BKN012
     FM041400 21010G15KT P6SM BKN035
     FM050000 20006KT P6SM BKN040=



000
FTUS42 KFFC 040546
TAFCSG
TAF
KCSG 040546Z 0406/0506 20004KT P6SM BKN080
     FM040900 20007KT 3SM BR SCT045
     FM041400 21006KT P6SM BKN045
     FM050000 19006KT P6SM BKN030
     FM050300 20007KT P6SM BKN012=



000
FTUS42 KFFC 040546
TAFAHN
TAF
KAHN 040546Z 0406/0506 00000KT 1/4SM FG OVC002
     FM041400 21006KT 1/2SM FG BKN002
     FM041500 22007KT P6SM BKN006
     FM041800 22010KT P6SM BKN008
     FM042000 22012KT P6SM BKN015
     FM050000 21009KT P6SM BKN025
     FM050300 20008KT P6SM BKN012=



000
FTUS42 KFFC 040546
TAFATL
TAF
KATL 040546Z 0406/0512 12005KT 1/4SM FG VV002
      TEMPO 0408/0412 1/2SM FG BKN004
     FM041200 20006KT 1/2SM FG BKN007
     FM041300 22008KT P6SM SCT004 BKN012
     FM041600 22010KT P6SM BKN012
     FM042000 22010G15KT P6SM SCT012 BKN025
     FM050000 20008KT P6SM BKN012
     FM050600 20007KT 2SM -RA OVC008=



000
FTUS42 KFFC 040546
TAFRYY
TAF
KRYY 040546Z 0406/0506 15005KT 1/4SM FG OVC003
     FM041200 19006KT 1/2SM FG BKN003
     FM041400 21008KT P6SM SCT005 BKN012
     FM041500 22010KT P6SM BKN012
     FM042000 22011KT P6SM BKN025
     FM050400 20007KT P6SM OVC012
     FM050500 20007KT 1SM -RA OVC012
      AMD NOT SKED TIL 041200=



000
FTUS42 KFFC 040449 AAA
TAFMCN
TAF AMD
KMCN 040449Z 0405/0424 32003KT 6SM BR OVC004
     FM040800 20004KT 6SM BR OVC004
     FM041000 19004KT 6SM BR BKN009
     FM041400 22006KT P6SM BKN015
     FM041700 22009KT P6SM BKN025
     FM042200 20006KT P6SM SCT040 BKN100=



000
FTUS42 KFFC 040428 AAC
TAFATL
TAF AMD
KATL 040428Z 0404/0506 13004KT 1/4SM FG VV002
     FM040800 20006KT 2SM BR BKN003 OVC007
     FM041400 22007KT 4SM BR BKN007
     FM041700 22010G16KT P6SM BKN020
     FM042200 20008KT P6SM SCT040 BKN100=



000
FTUS42 KFFC 040335 AAB
TAFATL
TAF AMD
KATL 040335Z 0404/0506 10005KT 1SM BR OVC002
     FM040800 20006KT 2SM BR BKN003 OVC007
     FM041400 22007KT 4SM BR BKN007
     FM041700 22010G16KT P6SM BKN020
     FM042200 20008KT P6SM SCT040 BKN100=



000
FTUS42 KFFC 040140 AAA
TAFATL
TAF AMD
KATL 040140Z 0402/0506 10005KT 1/2SM FG VV002
     FM040800 20006KT 2SM BR BKN003 OVC007
     FM041400 22007KT 4SM BR BKN007
     FM041700 22010G16KT P6SM BKN020
     FM042200 20008KT P6SM SCT040 BKN100=



000
FTUS42 KFFC 032325
TAFPDK
TAF
KPDK 032325Z 0400/0424 08004KT 1/2SM FG VV002
     FM040800 20005KT 2SM BR BKN003 OVC007
     FM041400 22006KT 4SM BR BKN007
     FM041700 22008G15KT P6SM BKN020
     FM042200 20006KT P6SM SCT040 BKN100=



000
FTUS42 KFFC 032325
TAFFTY
TAF
KFTY 032325Z 0400/0424 10004KT 5SM BR OVC004
     FM040800 20005KT 2SM BR BKN003 OVC007
     FM041400 22006KT 4SM BR BKN007
     FM041700 22008G15KT P6SM BKN020
     FM042200 20006KT P6SM SCT040 BKN100=



000
FTUS42 KFFC 032325
TAFMCN
TAF
KMCN 032325Z 0400/0424 19005KT P6SM BKN045
     FM040800 20004KT 6SM BR OVC025
     FM041000 19004KT 6SM BR BKN009
     FM041400 22006KT P6SM BKN015
     FM041700 22009KT P6SM BKN025
     FM042200 20006KT P6SM SCT040 BKN100=



000
FTUS42 KFFC 032325
TAFCSG
TAF
KCSG 032325Z 0400/0424 20006KT P6SM BKN045
     FM040800 19005KT P6SM BKN025
     FM041000 19004KT 6SM BR BKN009
     FM041400 22006KT P6SM BKN015
     FM041700 22009KT P6SM BKN025
     FM042200 20006KT P6SM SCT040 BKN100=



000
FTUS42 KFFC 032325
TAFAHN
TAF
KAHN 032325Z 0400/0424 08004KT 1/2SM FG VV002
     FM040800 20005KT 2SM BR BKN003 OVC007
     FM041400 22006KT 4SM BR BKN007
     FM041700 22008G15KT P6SM BKN020
     FM042200 20006KT P6SM SCT040 BKN100=



000
FTUS42 KFFC 032325
TAFATL
TAF
KATL 032325Z 0400/0506 10005KT 1/2SM FG VV002
     FM040800 20006KT 2SM BR BKN003 OVC007
     FM041400 22007KT 4SM BR BKN007
     FM041700 22010G16KT P6SM BKN020
     FM042200 20008KT P6SM SCT040 BKN100=



000
FTUS42 KFFC 032325
TAFRYY
TAF
KRYY 032325Z 0400/0424 11005KT 1SM BR OVC003
     FM040800 20005KT 2SM BR BKN003 OVC007
     FM041700 22008G15KT P6SM BKN020
     FM042200 20006KT P6SM SCT040 BKN100=



000
FTUS42 KFFC 032320
TAFMCN
TAF
KMCN 032320Z 0400/0424 19005KT P6SM SCT050
     FM040200 18004KT P6SM BKN040
     FM040800 20004KT 6SM BR OVC025
     FM041000 19004KT 6SM BR BKN009
     FM041400 22006KT P6SM BKN015
     FM041700 22009KT P6SM BKN025=



000
FTUS42 KFFC 032311 AAB
TAFRYY
TAF AMD
KRYY 032311Z 0323/0418 11005KT 1SM BR OVC003
     FM040300 13003KT 3SM BR OVC005
     FM040800 20005KT 2SM BR BKN003 OVC007
     FM041400 22006KT 3SM BR BKN007
     FM041700 22008KT P6SM BKN020=



000
FTUS42 KFFC 032311 AAB
TAFRYY
TAF AMD
KRYY 032311Z 0323/0418 11005KT 1SM BR OVC003
     FM040300 13003KT 3SM BR OVC005
     FM040800 20005KT 2SM BR BKN003 OVC007
     FM041400 22006KT 3SM BR BKN007
     FM041700 22008KT P6SM BKN020=



000
FTUS42 KFFC 032310 AAD
TAFATL
TAF AMD
KATL 032310Z 0323/0424 10005KT 1/2SM FG VV002
     FM040100 13006KT 3SM BR OVC005
     FM040800 20006KT 2SM BR BKN003 OVC007
     FM041400 22007KT 3SM BR BKN007
     FM041700 22010G16KT P6SM BKN020=



000
FTUS42 KFFC 032238 AAB
TAFCSG
TAF AMD
KCSG 032238Z 0323/0418 20006KT P6SM SCT045
     FM040200 19004KT P6SM BKN040
     FM040500 19005KT P6SM BKN025
     FM040700 20006KT 4SM BR BKN007
     FM041600 21006KT P6SM BKN015=



000
FTUS42 KFFC 032238 AAB
TAFCSG
TAF AMD
KCSG 032238Z 0323/0418 20006KT P6SM SCT045
     FM040200 19004KT P6SM BKN040
     FM040500 19005KT P6SM BKN025
     FM040700 20006KT 4SM BR BKN007
     FM041600 21006KT P6SM BKN015=



000
FTUS42 KFFC 032237 AAB
TAFMCN
TAF AMD
KMCN 032237Z 0323/0418 19005KT P6SM SCT050
     FM040200 18004KT P6SM BKN040
     FM040800 20004KT 6SM BR OVC025
     FM041000 19004KT 6SM BR BKN009
     FM041400 22006KT P6SM BKN015
     FM041700 22009KT P6SM BKN025=



000
FTUS42 KFFC 032237 AAB
TAFMCN
TAF AMD
KMCN 032237Z 0323/0418 19005KT P6SM SCT050
     FM040200 18004KT P6SM BKN040
     FM040800 20004KT 6SM BR OVC025
     FM041000 19004KT 6SM BR BKN009
     FM041400 22006KT P6SM BKN015
     FM041700 22009KT P6SM BKN025=



000
FTUS42 KFFC 032235 AAB
TAFPDK
TAF AMD
KPDK 032235Z 0323/0418 09005KT 1/2SM FG VV002
     FM040000 10004KT 5SM BR OVC009
     FM040300 13003KT 3SM BR OVC005
     FM040800 20005KT 2SM BR BKN003 OVC007
     FM041400 22006KT 3SM BR BKN007
     FM041700 22008KT P6SM BKN020=



000
FTUS42 KFFC 032233 AAA
TAFAHN
TAF AMD
KAHN 032233Z 0323/0418 06005KT 2SM BR OVC003
     FM040300 06004KT P6SM OVC006
     FM040800 00000KT 4SM BR OVC003
     FM041500 23006KT P6SM BKN007
     FM041700 22008KT P6SM BKN020=



000
FTUS42 KFFC 032214 AAC
TAFATL
TAF AMD
KATL 032214Z 0322/0424 10005KT 1/2SM FG VV002
     FM032300 10007KT 5SM BR OVC009
     FM040100 13006KT 3SM BR OVC005
     FM040800 20006KT 2SM BR BKN003 OVC007
     FM041400 22007KT 3SM BR BKN007
     FM041700 22010G16KT P6SM BKN020=



000
FTUS42 KFFC 032214 AAC
TAFATL
TAF AMD
KATL 032214Z 0322/0424 10005KT 1/2SM FG VV002
     FM032300 10007KT 5SM BR OVC009
     FM040100 13006KT 3SM BR OVC005
     FM040800 20006KT 2SM BR BKN003 OVC007
     FM041400 22007KT 3SM BR BKN007
     FM041700 22010G16KT P6SM BKN020=



000
FTUS42 KFFC 032155 AAA
TAFRYY
TAF AMD
KRYY 032155Z 0322/0418 11005KT 1SM BR OVC003
     FM032300 10004KT P6SM OVC009
     FM040300 13003KT 3SM BR OVC005
     FM040800 20005KT 2SM BR BKN003 OVC007
     FM041400 22006KT 3SM BR BKN007
     FM041700 22008KT P6SM BKN020=



000
FTUS42 KFFC 032152 AAA
TAFPDK
TAF AMD
KPDK 032152Z 0322/0418 09005KT 4SM BR OVC005
     FM032300 10004KT P6SM OVC009
     FM040500 13003KT 3SM BR OVC005
     FM040800 20005KT 2SM BR BKN003 OVC007
     FM041400 22006KT 3SM BR BKN007
     FM041700 22008KT P6SM BKN020=



000
FTUS42 KFFC 032151 AAA
TAFFTY
TAF AMD
KFTY 032151Z 0322/0418 09005KT 5SM BR OVC005
     FM032300 10004KT P6SM OVC009
     FM040500 13003KT 3SM BR OVC005
     FM040800 20005KT 2SM BR BKN003 OVC007
     FM041400 22006KT 3SM BR BKN007
     FM041700 22008KT P6SM BKN020=



000
FTUS42 KFFC 032151 AAA
TAFFTY
TAF AMD
KFTY 032151Z 0322/0418 09005KT 5SM BR OVC005
     FM032300 10004KT P6SM OVC009
     FM040500 13003KT 3SM BR OVC005
     FM040800 20005KT 2SM BR BKN003 OVC007
     FM041400 22006KT 3SM BR BKN007
     FM041700 22008KT P6SM BKN020=



000
FTUS42 KFFC 032149 AAB
TAFATL
TAF AMD
KATL 032149Z 0322/0424 10005KT 1/2SM FG VV002
     FM032300 10007KT P6SM OVC009
     FM040300 13006KT 3SM BR OVC005
     FM040800 20006KT 2SM BR BKN003 OVC007
     FM041400 22007KT 3SM BR BKN007
     FM041700 22010G16KT P6SM BKN020=



000
FTUS42 KFFC 031956 AAA
TAFCSG
TAF AMD
KCSG 031956Z 0320/0418 20006KT P6SM BKN025
     FM040000 19004KT P6SM BKN040
     FM040500 19005KT P6SM BKN025
     FM040700 20006KT 4SM BR BKN007
     FM041600 21006KT P6SM BKN015=



000
FTUS42 KFFC 031956 AAA
TAFMCN
TAF AMD
KMCN 031956Z 0320/0418 19005KT P6SM OVC025
     FM040000 18004KT P6SM BKN040
     FM040800 20004KT 6SM BR OVC025
     FM041000 19004KT 6SM BR BKN009
     FM041400 22006KT P6SM BKN015
     FM041700 22009KT P6SM BKN025=



000
FTUS42 KFFC 031955 AAA
TAFATL
TAF AMD
KATL 031955Z 0320/0424 10007KT 4SM BR OVC005
     FM032300 10007KT P6SM OVC009
     FM040500 13006KT 3SM BR OVC005
     FM040800 20006KT 2SM BR BKN003 OVC007
     FM041400 22007KT 3SM BR BKN007
     FM041700 22010G16KT P6SM BKN020=



000
FTUS42 KFFC 031731
TAFPDK
TAF
KPDK 031731Z 0318/0418 09005KT 4SM BR OVC005
     FM032100 10004KT P6SM OVC009
     FM040500 13003KT 3SM BR OVC005
     FM040800 20005KT 2SM BR BKN003 OVC007
     FM041400 22006KT 3SM BR BKN007
     FM041700 22008KT P6SM BKN020=



000
FTUS42 KFFC 031731
TAFMCN
TAF
KMCN 031731Z 0318/0418 18005KT P6SM OVC015
     FM032100 19005KT P6SM OVC025
     FM040000 18004KT P6SM BKN040
     FM040800 20004KT 6SM BR OVC025
     FM041000 19004KT 6SM BR BKN009
     FM041400 22006KT P6SM BKN015
     FM041700 22009KT P6SM BKN025=



000
FTUS42 KFFC 031731
TAFAHN
TAF
KAHN 031731Z 0318/0418 06005KT 3SM -RA BR OVC007
     FM032100 06004KT P6SM OVC006
     FM040800 00000KT 4SM BR OVC003
     FM041500 23006KT P6SM BKN007
     FM041700 22008KT P6SM BKN020=



000
FTUS42 KFFC 031731
TAFRYY
TAF
KRYY 031731Z 0318/0418 09005KT 4SM BR OVC005
     FM032100 10004KT P6SM OVC009
     FM040500 13003KT 3SM BR OVC005
     FM040800 20005KT 2SM BR BKN003 OVC007
     FM041400 22006KT 3SM BR BKN007
     FM041700 22008KT P6SM BKN020=



000
FTUS42 KFFC 031731
TAFCSG
TAF
KCSG 031731Z 0318/0418 17005KT P6SM OVC012
     FM032100 20006KT P6SM BKN025
     FM040000 19004KT P6SM BKN040
     FM040500 19005KT P6SM BKN025
     FM040700 20006KT 4SM BR BKN007
     FM041600 21006KT P6SM BKN015=



000
FTUS42 KFFC 031731
TAFPDK
TAF
KPDK 031731Z 0318/0418 09005KT 4SM BR OVC005
     FM032100 10004KT P6SM OVC009
     FM040500 13003KT 3SM BR OVC005
     FM040800 20005KT 2SM BR BKN003 OVC007
     FM041400 22006KT 3SM BR BKN007
     FM041700 22008KT P6SM BKN020=



000
FTUS42 KFFC 031731
TAFMCN
TAF
KMCN 031731Z 0318/0418 18005KT P6SM OVC015
     FM032100 19005KT P6SM OVC025
     FM040000 18004KT P6SM BKN040
     FM040800 20004KT 6SM BR OVC025
     FM041000 19004KT 6SM BR BKN009
     FM041400 22006KT P6SM BKN015
     FM041700 22009KT P6SM BKN025=



000
FTUS42 KFFC 031731
TAFFTY
TAF
KFTY 031731Z 0318/0418 09005KT 4SM BR OVC005
     FM032100 10004KT P6SM OVC009
     FM040500 13003KT 3SM BR OVC005
     FM040800 20005KT 2SM BR BKN003 OVC007
     FM041400 22006KT 3SM BR BKN007
     FM041700 22008KT P6SM BKN020=



000
FTUS42 KFFC 031731
TAFATL
TAF
KATL 031731Z 0318/0424 10007KT 4SM BR OVC005
     FM032100 10007KT P6SM OVC009
     FM040500 13006KT 3SM BR OVC005
     FM040800 20006KT 2SM BR BKN003 OVC007
     FM041400 22007KT 3SM BR BKN007
     FM041700 22010G16KT P6SM BKN020=



000
FTUS42 KFFC 031731
TAFRYY
TAF
KRYY 031731Z 0318/0418 09005KT 4SM BR OVC005
     FM032100 10004KT P6SM OVC009
     FM040500 13003KT 3SM BR OVC005
     FM040800 20005KT 2SM BR BKN003 OVC007
     FM041400 22006KT 3SM BR BKN007
     FM041700 22008KT P6SM BKN020=



000
FTUS42 KFFC 031731
TAFAHN
TAF
KAHN 031731Z 0318/0418 06005KT 3SM -RA BR OVC007
     FM032100 06004KT P6SM OVC006
     FM040800 00000KT 4SM BR OVC003
     FM041500 23006KT P6SM BKN007
     FM041700 22008KT P6SM BKN020=



000
FTUS42 KFFC 031731
TAFCSG
TAF
KCSG 031731Z 0318/0418 17005KT P6SM OVC012
     FM032100 20006KT P6SM BKN025
     FM040000 19004KT P6SM BKN040
     FM040500 19005KT P6SM BKN025
     FM040700 20006KT 4SM BR BKN007
     FM041600 21006KT P6SM BKN015=



000
FTUS42 KFFC 031731
TAFATL
TAF
KATL 031731Z 0318/0424 10007KT 4SM BR OVC005
     FM032100 10007KT P6SM OVC009
     FM040500 13006KT 3SM BR OVC005
     FM040800 20006KT 2SM BR BKN003 OVC007
     FM041400 22007KT 3SM BR BKN007
     FM041700 22010G16KT P6SM BKN020=



000
FTUS42 KFFC 031731
TAFFTY
TAF
KFTY 031731Z 0318/0418 09005KT 4SM BR OVC005
     FM032100 10004KT P6SM OVC009
     FM040500 13003KT 3SM BR OVC005
     FM040800 20005KT 2SM BR BKN003 OVC007
     FM041400 22006KT 3SM BR BKN007
     FM041700 22008KT P6SM BKN020=



000
FTUS42 KFFC 031602 AAA
TAFAHN
TAF AMD
KAHN 031602Z 0316/0412 05007KT 6SM -DZ BR BKN008
      TEMPO 0316/0318 2SM -RA BKN004
     FM031900 05006KT P6SM OVC004
     FM040600 03005KT 5SM BR OVC003
     FM041100 28003KT P6SM OVC008=



000
FTUS42 KFFC 031601 AAA
TAFPDK
TAF AMD
KPDK 031601Z 0316/0412 09008KT 6SM -RA BR OVC008
      TEMPO 0316/0318 2SM RA OVC004
     FM031800 09007KT P6SM OVC005
     FM032100 09007KT P6SM SCT005 BKN012
     FM040000 08007KT P6SM OVC008
     FM040500 11006KT 5SM BR OVC004
     FM041000 15006KT P6SM OVC008=



000
FTUS42 KFFC 031601 AAA
TAFFTY
TAF AMD
KFTY 031601Z 0316/0412 09007KT 4SM -RA BKN008
      TEMPO 0316/0318 2SM RA BR OVC003
     FM031800 11007KT 6SM BR OVC008
     FM032100 10007KT P6SM OVC012
     FM040100 09007KT P6SM OVC008
     FM040500 14006KT 5SM BR OVC004
     FM040800 18006KT P6SM OVC004=



000
FTUS42 KFFC 031601 AAA
TAFRYY
TAF AMD
KRYY 031601Z 0316/0412 09008KT 6SM -RA BR OVC008
      TEMPO 0316/0318 2SM RA OVC004
     FM031800 09007KT P6SM OVC005
     FM032100 09007KT P6SM SCT005 BKN012
     FM040000 08007KT P6SM OVC008
     FM040500 11006KT 5SM BR OVC004
     FM041000 15006KT P6SM OVC008=



000
FTUS42 KFFC 031600 AAB
TAFATL
TAF AMD
KATL 031600Z 0316/0418 09007KT 5SM -RADZ OVC005
      TEMPO 0316/0318 2SM RA BR OVC003
     FM031800 10007KT 6SM BR OVC007
     FM032100 10007KT P6SM OVC012
     FM040500 13006KT P6SM OVC004
     FM041000 20006KT P6SM OVC007
     FM041500 22010KT P6SM VCSH BKN012=



000
FTUS42 KFFC 031400 AAA
TAFATL
TAF AMD
KATL 031400Z 0314/0418 09007KT 5SM -RADZ OVC005
      TEMPO 0314/0318 2SM RA BR OVC003
     FM031800 10007KT 6SM BR OVC007
     FM032100 10007KT P6SM OVC012
     FM040500 13006KT P6SM OVC004
     FM041000 20006KT P6SM OVC007
     FM041500 22010KT P6SM VCSH BKN012=



000
FTUS42 KFFC 031400 AAA
TAFATL
TAF AMD
KATL 031400Z 0314/0418 09007KT 5SM -RADZ OVC005
      TEMPO 0314/0318 2SM RA BR OVC003
     FM031800 10007KT 6SM BR OVC007
     FM032100 10007KT P6SM OVC012
     FM040500 13006KT P6SM OVC004
     FM041000 20006KT P6SM OVC007
     FM041500 22010KT P6SM VCSH BKN012=



000
FTUS42 KFFC 031123
TAFAHN
TAF
KAHN 031123Z 0312/0412 05007KT 6SM -DZ BR BKN008
      TEMPO 0313/0317 3SM -RA BKN004
     FM031900 05006KT P6SM OVC004
     FM040600 03005KT 5SM BR OVC003
     FM041100 28003KT P6SM OVC008=



000
FTUS42 KFFC 031123
TAFPDK
TAF
KPDK 031123Z 0312/0412 09007KT 6SM -RA BR SCT008 OVC012
     FM031300 09008KT 6SM -RA BR OVC008
      TEMPO 0313/0317 3SM RA OVC006
     FM031800 09007KT P6SM OVC005
     FM032100 09007KT P6SM SCT005 BKN012
     FM040000 08007KT P6SM OVC008
     FM040500 11006KT 5SM BR OVC004
     FM041000 15006KT P6SM OVC008=



000
FTUS42 KFFC 031123
TAFFTY
TAF
KFTY 031123Z 0312/0412 09007KT 4SM -RA BKN008
      TEMPO 0312/0316 2SM RA BR OVC003
     FM031600 11007KT 6SM BR OVC008
     FM032100 10007KT P6SM OVC012
     FM040100 09007KT P6SM OVC008
     FM040500 14006KT 5SM BR OVC004
     FM040800 18006KT P6SM OVC004=



000
FTUS42 KFFC 031123
TAFRYY
TAF
KRYY 031123Z 0312/0412 09007KT P6SM SCT008 OVC012
     FM031300 09008KT 6SM -RA BR OVC008
      TEMPO 0313/0317 3SM RA OVC006
     FM031800 09007KT P6SM OVC005
     FM032100 09007KT P6SM SCT005 BKN012
     FM040000 08007KT P6SM OVC008
     FM040500 11006KT 5SM BR OVC004
     FM041000 15006KT P6SM OVC008=



000
FTUS42 KFFC 031123
TAFCSG
TAF
KCSG 031123Z 0312/0412 11004KT 4SM -DZ BR OVC003
     FM031600 15005KT 6SM BR OVC004
     FM031800 17007KT P6SM OVC012
     FM032000 18008KT P6SM BKN025
     FM040500 20006KT P6SM BKN012
     FM040600 20006KT 5SM BR BKN008=



000
FTUS42 KFFC 031123
TAFMCN
TAF
KMCN 031123Z 0312/0412 00000KT 6SM BR SCT006 BKN012
     FM031300 09003KT 4SM -DZ BR OVC006
     FM031800 18007KT P6SM OVC012
     FM032100 19007KT P6SM OVC025
     FM040500 21006KT P6SM OVC025
     FM040700 20006KT 5SM BR OVC012=



000
FTUS42 KFFC 031123
TAFATL
TAF
KATL 031123Z 0312/0418 09007KT 5SM -RADZ OVC005
      TEMPO 0312/0316 2SM RA BR OVC003
     FM031600 10007KT 6SM BR OVC007
     FM032100 10007KT P6SM OVC012
     FM040500 13006KT P6SM OVC004
     FM041000 20006KT P6SM OVC007
     FM041500 22010KT P6SM VCSH BKN012=



000
FTUS42 KFFC 031018 AAB
TAFAHN
TAF AMD
KAHN 031018Z 0310/0406 07008KT P6SM BKN008 OVC028
     FM031100 04006KT 6SM -DZ BR OVC008
     FM031300 05007KT 3SM -RADZ BR OVC008
     FM032200 05006KT 6SM BR OVC008=



000
FTUS42 KFFC 031017 AAD
TAFATL
TAF AMD
KATL 031017Z 0310/0412 03003KT 5SM -DZ BR OVC004
      TEMPO 0311/0315 2SM RA BR BKN003
     FM031600 10007KT 6SM -DZ OVC007
     FM032200 14006KT P6SM SCT007 OVC012
     FM040800 19006KT 3SM BR OVC008=



000
FTUS42 KFFC 031017 AAD
TAFATL
TAF AMD
KATL 031017Z 0310/0412 03003KT 5SM -DZ BR OVC004
      TEMPO 0311/0315 2SM RA BR BKN003
     FM031600 10007KT 6SM -DZ OVC007
     FM032200 14006KT P6SM SCT007 OVC012
     FM040800 19006KT 3SM BR OVC008=



000
FTUS42 KFFC 030930 AAC
TAFATL
TAF AMD
KATL 030930Z 0310/0412 02003KT P6SM OVC007
     FM031100 09006KT 6SM -DZ BR SCT004 BKN007
      TEMPO 0312/0316 2SM RA BR BKN004
     FM031600 10007KT 6SM -DZ OVC007
     FM032200 14006KT P6SM SCT007 OVC012
     FM040800 19006KT 3SM BR OVC008=



000
FTUS42 KFFC 030930 AAC
TAFATL
TAF AMD
KATL 030930Z 0310/0412 02003KT P6SM OVC007
     FM031100 09006KT 6SM -DZ BR SCT004 BKN007
      TEMPO 0312/0316 2SM RA BR BKN004
     FM031600 10007KT 6SM -DZ OVC007
     FM032200 14006KT P6SM SCT007 OVC012
     FM040800 19006KT 3SM BR OVC008=



000
FTUS42 KFFC 030903 AAA
TAFAHN
TAF AMD
KAHN 030903Z 0309/0406 00000KT P6SM SCT025 OVC030
     FM031100 04006KT 6SM -DZ BR OVC020
     FM031300 05007KT 3SM -RADZ BR OVC008
     FM032200 05006KT 6SM BR OVC008=



000
FTUS42 KFFC 030902 AAB
TAFATL
TAF AMD
KATL 030902Z 0309/0412 02003KT P6SM OVC007
     FM031100 09006KT 6SM -DZ BR SCT004 BKN008
      TEMPO 0312/0316 2SM RA BR BKN004
     FM031600 10007KT 6SM -DZ OVC007
     FM032200 14006KT P6SM SCT007 OVC012
     FM040800 19006KT 3SM BR OVC008=



000
FTUS42 KFFC 030731 AAA
TAFATL
TAF AMD
KATL 030731Z 0308/0412 00000KT P6SM FEW008 OVC012
     FM031100 09006KT 6SM -DZ BR SCT004 BKN008
      TEMPO 0312/0316 2SM RA BR BKN004
     FM031600 10007KT 6SM -DZ OVC007
     FM032200 14006KT P6SM SCT007 OVC012
     FM040800 19006KT 3SM BR OVC008=



000
FTUS42 KFFC 030731 AAA
TAFATL
TAF AMD
KATL 030731Z 0308/0412 00000KT P6SM FEW008 OVC012
     FM031100 09006KT 6SM -DZ BR SCT004 BKN008
      TEMPO 0312/0316 2SM RA BR BKN004
     FM031600 10007KT 6SM -DZ OVC007
     FM032200 14006KT P6SM SCT007 OVC012
     FM040800 19006KT 3SM BR OVC008=



000
FTUS42 KFFC 030540
TAFATL
TAF
KATL 030540Z 0306/0412 00000KT P6SM FEW008 OVC012
     FM030900 00000KT 6SM -DZ BR OVC008
     FM031100 09006KT 4SM -DZ BR BKN004 OVC008
      TEMPO 0312/0316 2SM RA BR
     FM031600 10007KT 6SM -DZ OVC007
     FM032200 14006KT P6SM SCT007 OVC012
     FM040800 19006KT 3SM BR OVC008=



000
FTUS42 KFFC 030540
TAFFTY
TAF
KFTY 030540Z 0306/0406 00000KT P6SM FEW008 OVC012
     FM030900 00000KT 6SM -DZ BR OVC008
     FM031100 09006KT 4SM -DZ BR BKN004 OVC008
      TEMPO 0312/0316 2SM RA BR
     FM031600 11007KT 5SM -DZ BR OVC008
     FM032200 10007KT P6SM OVC010
     FM040100 09007KT P6SM OVC008=



000
FTUS42 KFFC 030540
TAFPDK
TAF
KPDK 030540Z 0306/0406 00000KT P6SM OVC020
     FM030900 00000KT 6SM -DZ BR OVC008
     FM031000 09006KT 4SM -DZ BR BKN004 OVC008
      TEMPO 0311/0315 2SM RA BR
     FM031500 11007KT 5SM -DZ BR OVC008
     FM032200 10007KT P6SM OVC010
     FM040100 09007KT P6SM OVC008=



000
FTUS42 KFFC 030540
TAFAHN
TAF
KAHN 030540Z 0306/0406 00000KT P6SM SCT025 OVC045
     FM030900 04006KT 6SM -DZ BR OVC012
     FM031300 05007KT 3SM -RADZ BR OVC008
     FM032200 05006KT 6SM BR OVC008=



000
FTUS42 KFFC 030540
TAFRYY
TAF
KRYY 030540Z 0306/0406 00000KT P6SM BKN012
     FM030900 00000KT 6SM -DZ BR OVC008
     FM031000 09006KT 4SM -DZ BR BKN004 OVC008
      TEMPO 0311/0315 2SM RA BR
     FM031500 11007KT 5SM -DZ BR OVC008
     FM032200 10007KT P6SM OVC010
     FM040100 09007KT P6SM OVC008
      AMD NOT SKED TIL 031200=



000
FTUS42 KFFC 030540
TAFCSG
TAF
KCSG 030540Z 0306/0406 00000KT 6SM BR SCT012 BKN020
     FM030900 09004KT 4SM -DZ BR OVC007
     FM031400 13004KT 3SM -DZ BR OVC008
     FM031500 14005KT P6SM OVC008
     FM031700 17006KT P6SM OVC012
     FM032000 18008KT P6SM BKN020=



000
FTUS42 KFFC 030540
TAFATL
TAF
KATL 030540Z 0306/0412 00000KT P6SM FEW008 OVC012
     FM030900 00000KT 6SM -DZ BR OVC008
     FM031100 09006KT 4SM -DZ BR BKN004 OVC008
      TEMPO 0312/0316 2SM RA BR
     FM031600 10007KT 6SM -DZ OVC007
     FM032200 14006KT P6SM SCT007 OVC012
     FM040800 19006KT 3SM BR OVC008=



000
FTUS42 KFFC 030540
TAFFTY
TAF
KFTY 030540Z 0306/0406 00000KT P6SM FEW008 OVC012
     FM030900 00000KT 6SM -DZ BR OVC008
     FM031100 09006KT 4SM -DZ BR BKN004 OVC008
      TEMPO 0312/0316 2SM RA BR
     FM031600 11007KT 5SM -DZ BR OVC008
     FM032200 10007KT P6SM OVC010
     FM040100 09007KT P6SM OVC008=



000
FTUS42 KFFC 030540
TAFCSG
TAF
KCSG 030540Z 0306/0406 00000KT 6SM BR SCT012 BKN020
     FM030900 09004KT 4SM -DZ BR OVC007
     FM031400 13004KT 3SM -DZ BR OVC008
     FM031500 14005KT P6SM OVC008
     FM031700 17006KT P6SM OVC012
     FM032000 18008KT P6SM BKN020=



000
FTUS42 KFFC 030540
TAFRYY
TAF
KRYY 030540Z 0306/0406 00000KT P6SM BKN012
     FM030900 00000KT 6SM -DZ BR OVC008
     FM031000 09006KT 4SM -DZ BR BKN004 OVC008
      TEMPO 0311/0315 2SM RA BR
     FM031500 11007KT 5SM -DZ BR OVC008
     FM032200 10007KT P6SM OVC010
     FM040100 09007KT P6SM OVC008
      AMD NOT SKED TIL 031200=



000
FTUS42 KFFC 030540
TAFAHN
TAF
KAHN 030540Z 0306/0406 00000KT P6SM SCT025 OVC045
     FM030900 04006KT 6SM -DZ BR OVC012
     FM031300 05007KT 3SM -RADZ BR OVC008
     FM032200 05006KT 6SM BR OVC008=



000
FTUS42 KFFC 030540
TAFPDK
TAF
KPDK 030540Z 0306/0406 00000KT P6SM OVC020
     FM030900 00000KT 6SM -DZ BR OVC008
     FM031000 09006KT 4SM -DZ BR BKN004 OVC008
      TEMPO 0311/0315 2SM RA BR
     FM031500 11007KT 5SM -DZ BR OVC008
     FM032200 10007KT P6SM OVC010
     FM040100 09007KT P6SM OVC008=



000
FTUS42 KFFC 030540
TAFMCN
TAF
KMCN 030540Z 0306/0406 00000KT P6SM SCT025 BKN060
     FM030700 00000KT 6SM -DZ BR BKN025
     FM030900 00000KT 6SM -DZ BR OVC015
     FM031100 00000KT 4SM -DZ BR OVC008
     FM031500 12005KT P6SM OVC009
     FM031700 16006KT P6SM OVC012
     FM032200 19006KT P6SM OVC025=



000
FTUS42 KFFC 030540
TAFMCN
TAF
KMCN 030540Z 0306/0406 00000KT P6SM SCT025 BKN060
     FM030700 00000KT 6SM -DZ BR BKN025
     FM030900 00000KT 6SM -DZ BR OVC015
     FM031100 00000KT 4SM -DZ BR OVC008
     FM031500 12005KT P6SM OVC009
     FM031700 16006KT P6SM OVC012
     FM032200 19006KT P6SM OVC025=



000
FTUS42 KFFC 030328 AAB
TAFCSG
TAF AMD
KCSG 030328Z 0303/0324 35003KT P6SM SCT025 BKN040
      TEMPO 0303/0306 -RA BKN025
     FM030600 03003KT 5SM BR BKN025
     FM030800 06004KT 4SM -RADZ BR OVC010
     FM031000 09005KT 2SM -RADZ BR OVC004
     FM031600 10006KT 3SM -RADZ BR OVC007
     FM032100 12005KT 4SM BR BKN012=



000
FTUS42 KFFC 030327 AAA
TAFMCN
TAF AMD
KMCN 030327Z 0303/0324 29003KT P6SM SCT035 BKN100
      TEMPO 0303/0306 -RA BKN035
     FM030600 03003KT 5SM BR BKN025
     FM030800 06004KT 4SM -RADZ BR OVC010
     FM031000 09005KT 2SM -RADZ BR OVC004
     FM031600 10006KT 3SM -RADZ BR OVC007
     FM032100 12005KT 4SM BR BKN012=



000
FTUS42 KFFC 030324 AAA
TAFAHN
TAF AMD
KAHN 030324Z 0303/0324 28004KT P6SM SCT025 BKN050
      TEMPO 0303/0307 -RA BKN025
     FM030700 05005KT 4SM BR OVC010
     FM031000 08005KT 2SM -RADZ BR OVC004
     FM031600 08006KT 3SM -DZ BR OVC005
     FM032100 09005KT 4SM BR OVC007=



000
FTUS42 KFFC 030323 AAA
TAFRYY
TAF AMD
KRYY 030323Z 0303/0324 34003KT P6SM SCT025 BKN070
      TEMPO 0303/0306 -RA BKN020
     FM030600 00000KT 6SM BR OVC010
     FM030900 04003KT 3SM -RADZ BR OVC007
     FM031100 07004KT 2SM -RADZ BR OVC004
     FM031600 10005KT 3SM -RADZ BR OVC005
     FM032100 10006KT 4SM BR OVC007=



000
FTUS42 KFFC 030323 AAA
TAFRYY
TAF AMD
KRYY 030323Z 0303/0324 34003KT P6SM SCT025 BKN070
      TEMPO 0303/0306 -RA BKN020
     FM030600 00000KT 6SM BR OVC010
     FM030900 04003KT 3SM -RADZ BR OVC007
     FM031100 07004KT 2SM -RADZ BR OVC004
     FM031600 10005KT 3SM -RADZ BR OVC005
     FM032100 10006KT 4SM BR OVC007=



000
FTUS42 KFFC 030322 AAA
TAFFTY
TAF AMD
KFTY 030322Z 0303/0324 34003KT P6SM SCT025 BKN070
      TEMPO 0303/0306 -RA BKN020
     FM030600 00000KT 6SM BR OVC010
     FM030900 04003KT 3SM -RADZ BR OVC007
     FM031100 07004KT 2SM -RADZ BR OVC004
     FM031600 10005KT 3SM -RADZ BR OVC005
     FM032100 10006KT 4SM BR OVC007=



000
FTUS42 KFFC 030322 AAA
TAFPDK
TAF AMD
KPDK 030322Z 0303/0324 34003KT P6SM SCT025 BKN070
      TEMPO 0303/0306 -RA BKN020
     FM030600 00000KT 6SM BR OVC010
     FM030900 04003KT 3SM -RADZ BR OVC007
     FM031100 07004KT 2SM -RADZ BR OVC004
     FM031600 10005KT 3SM -RADZ BR OVC005
     FM032100 10006KT 4SM BR OVC007=



000
FTUS42 KFFC 030322 AAA
TAFPDK
TAF AMD
KPDK 030322Z 0303/0324 34003KT P6SM SCT025 BKN070
      TEMPO 0303/0306 -RA BKN020
     FM030600 00000KT 6SM BR OVC010
     FM030900 04003KT 3SM -RADZ BR OVC007
     FM031100 07004KT 2SM -RADZ BR OVC004
     FM031600 10005KT 3SM -RADZ BR OVC005
     FM032100 10006KT 4SM BR OVC007=



000
FTUS42 KFFC 030320 AAC
TAFATL
TAF AMD
KATL 030320Z 0303/0406 34006KT P6SM SCT015 BKN060
      TEMPO 0303/0306 -RA BKN015
     FM030600 03003KT 5SM BR OVC010
     FM030900 06004KT 4SM -RADZ BR OVC007
     FM031100 07005KT 2SM -RADZ BR OVC004
     FM031600 10007KT 3SM -RADZ BR OVC005
     FM032100 10006KT 4SM BR OVC007
     FM040300 13005KT 3SM BR OVC005=



000
FTUS42 KFFC 030134 AAB
TAFATL
TAF AMD
KATL 030134Z 0302/0406 32005KT P6SM SCT020 BKN050
      TEMPO 0302/0303 -RA BKN015
     FM030300 35004KT 6SM BR OVC012
     FM030600 04003KT 3SM -RADZ BR OVC007
     FM031000 07005KT 2SM -RADZ BR OVC004
     FM031600 10007KT 3SM -RADZ BR OVC005
     FM032100 10006KT 4SM BR OVC007
     FM040300 13005KT 3SM BR OVC005=



000
FTUS42 KFFC 030134 AAB
TAFATL
TAF AMD
KATL 030134Z 0302/0406 32005KT P6SM SCT020 BKN050
      TEMPO 0302/0303 -RA BKN015
     FM030300 35004KT 6SM BR OVC012
     FM030600 04003KT 3SM -RADZ BR OVC007
     FM031000 07005KT 2SM -RADZ BR OVC004
     FM031600 10007KT 3SM -RADZ BR OVC005
     FM032100 10006KT 4SM BR OVC007
     FM040300 13005KT 3SM BR OVC005=



000
FTUS42 KFFC 030116 AAA
TAFCSG
TAF AMD
KCSG 030116Z 0301/0324 35005KT P6SM SCT025 BKN040
      TEMPO 0301/0304 -RA BKN025
     FM030400 02003KT 5SM BR BKN025
     FM030700 05004KT 4SM -RADZ BR OVC010
     FM031000 08005KT 2SM -RADZ BR OVC004
     FM031600 09006KT 3SM -RADZ BR OVC007
     FM032100 12005KT 4SM BR BKN012=



000
FTUS42 KFFC 030116 AAA
TAFCSG
TAF AMD
KCSG 030116Z 0301/0324 35005KT P6SM SCT025 BKN040
      TEMPO 0301/0304 -RA BKN025
     FM030400 02003KT 5SM BR BKN025
     FM030700 05004KT 4SM -RADZ BR OVC010
     FM031000 08005KT 2SM -RADZ BR OVC004
     FM031600 09006KT 3SM -RADZ BR OVC007
     FM032100 12005KT 4SM BR BKN012=



000
FTUS42 KFFC 030018 AAA
TAFATL
TAF AMD
KATL 030018Z 0300/0406 32008KT P6SM VCSH SCT025 BKN050
      TEMPO 0300/0303 -RA BKN025
     FM030300 35006KT 6SM BR OVC012
     FM030600 04003KT 3SM -RADZ BR OVC007
     FM031000 07005KT 2SM -RADZ BR OVC004
     FM031600 10007KT 3SM -RADZ BR OVC005
     FM032100 10006KT 4SM BR OVC007
     FM040300 13005KT 3SM BR OVC005=



000
FTUS42 KFFC 030018 AAA
TAFATL
TAF AMD
KATL 030018Z 0300/0406 32008KT P6SM VCSH SCT025 BKN050
      TEMPO 0300/0303 -RA BKN025
     FM030300 35006KT 6SM BR OVC012
     FM030600 04003KT 3SM -RADZ BR OVC007
     FM031000 07005KT 2SM -RADZ BR OVC004
     FM031600 10007KT 3SM -RADZ BR OVC005
     FM032100 10006KT 4SM BR OVC007
     FM040300 13005KT 3SM BR OVC005=



000
FTUS42 KFFC 022331
TAFATL
TAF
KATL 022331Z 0300/0406 32008KT P6SM VCSH SCT025 BKN070
     FM030300 35006KT 6SM BR OVC012
     FM030600 04003KT 3SM -RADZ BR OVC007
     FM031000 07005KT 2SM -RADZ BR OVC004
     FM031600 10007KT 3SM -RADZ BR OVC005
     FM032100 10006KT 4SM BR OVC007
     FM040300 13005KT 3SM BR OVC005=



000
FTUS42 KFFC 022331
TAFFTY
TAF
KFTY 022331Z 0300/0324 30006KT P6SM SCT025 BKN070
      TEMPO 0300/0303 -RA BKN020
     FM030300 34004KT 6SM BR OVC010
     FM030600 04002KT 3SM -RADZ BR OVC007
     FM031000 07003KT 2SM -RADZ BR OVC004
     FM031600 10004KT 3SM -RADZ BR OVC005
     FM032100 10005KT 4SM BR OVC007=



000
FTUS42 KFFC 022331
TAFAHN
TAF
KAHN 022331Z 0300/0324 29005KT P6SM SCT035 BKN100
      TEMPO 0300/0304 -RA BKN035
     FM030400 03003KT 5SM BR BKN025
     FM030700 06005KT 4SM BR OVC010
     FM031000 08005KT 2SM -RADZ BR OVC004
     FM031600 08006KT 3SM BR OVC005
     FM032100 09005KT 4SM BR OVC007=



000
FTUS42 KFFC 022331
TAFMCN
TAF
KMCN 022331Z 0300/0324 29005KT P6SM SCT035 BKN100
      TEMPO 0300/0304 -RA BKN035
     FM030400 02003KT 5SM BR BKN025
     FM030700 05004KT 4SM -RADZ BR OVC010
     FM031000 08005KT 2SM -RADZ BR OVC004
     FM031600 09006KT 3SM -RADZ BR OVC007
     FM032100 12005KT 4SM BR BKN012=



000
FTUS42 KFFC 022331
TAFCSG
TAF
KCSG 022331Z 0300/0324 30005KT P6SM SCT035 BKN050
      TEMPO 0300/0304 -RA BKN035
     FM030400 02003KT 5SM BR BKN025
     FM030700 05004KT 4SM -RADZ BR OVC010
     FM031000 08005KT 2SM -RADZ BR OVC004
     FM031600 09006KT 3SM -RADZ BR OVC007
     FM032100 12005KT 4SM BR BKN012=



000
FTUS42 KFFC 022331
TAFPDK
TAF
KPDK 022331Z 0300/0324 30007KT P6SM SCT025 BKN070
      TEMPO 0300/0303 -RA BKN020
     FM030300 34004KT 6SM BR OVC010
     FM030600 04002KT 3SM -RADZ BR OVC007
     FM031000 07003KT 2SM -RADZ BR OVC004
     FM031600 10004KT 3SM -RADZ BR OVC005
     FM032100 10005KT 4SM BR OVC007=



000
FTUS42 KFFC 022331
TAFRYY
TAF
KRYY 022331Z 0300/0324 32007KT P6SM SCT025 BKN070
      TEMPO 0300/0303 -RA BKN020
     FM030300 34005KT 6SM BR OVC010
     FM030600 04002KT 3SM -RADZ BR OVC007
     FM031000 07004KT 2SM -RADZ BR OVC004
     FM031600 10005KT 3SM -RADZ BR OVC005
     FM032100 10006KT 4SM BR OVC007=



000
FTUS42 KFFC 022141 AAA
TAFCSG
TAF AMD
KCSG 022141Z 0222/0318 33006KT P6SM SCT025 BKN050
      TEMPO 0222/0224 -SHRA BKN025
     FM030000 04005KT P6SM OVC015
     FM030600 07003KT 4SM BR OVC008
     FM030900 10004KT 3SM -RA BR OVC004
     FM031500 13007KT 4SM BR OVC004=



000
FTUS42 KFFC 022133 AAA
TAFMCN
TAF AMD
KMCN 022133Z 0222/0318 28007KT P6SM BKN050
     FM030000 32004KT P6SM BKN025
      TEMPO 0300/0304 -SHRA BKN015
     FM030600 04004KT 4SM BR OVC010
     FM031000 07005KT 3SM -RA BR OVC006
     FM031600 10007KT 4SM BR OVC007=



000
FTUS42 KFFC 022128 AAA
TAFAHN
TAF AMD
KAHN 022128Z 0221/0318 26006KT P6SM SCT025 BKN100
     FM030000 29004KT P6SM BKN025
      TEMPO 0300/0304 -SHRA BKN015
     FM030600 05005KT 3SM BR OVC008
     FM031000 08005KT 2SM -RA BR OVC004
     FM031600 09007KT 3SM BR OVC005=



000
FTUS42 KFFC 022125 AAA
TAFRYY
TAF AMD
KRYY 022125Z 0221/0318 30006KT P6SM SCT025 BKN070
      TEMPO 0221/0224 -SHRA BKN025
     FM030000 33005KT P6SM OVC015
     FM030600 04003KT 3SM BR OVC008
     FM031000 07004KT 2SM -RA BR OVC004
     FM031600 10007KT 2SM BR OVC004=



000
FTUS42 KFFC 022124 AAA
TAFPDK
TAF AMD
KPDK 022124Z 0221/0318 30007KT P6SM SCT025 BKN060
      TEMPO 0221/0224 -SHRA BKN025
     FM030000 33005KT P6SM OVC015
     FM030600 04003KT 3SM BR OVC008
     FM031000 07004KT 2SM -RA BR OVC004
     FM031600 10007KT 2SM BR OVC004=



000
FTUS42 KFFC 022122 AAA
TAFFTY
TAF AMD
KFTY 022122Z 0221/0318 30006KT P6SM SCT025 BKN050
      TEMPO 0221/0224 -SHRA BKN020
     FM030000 33005KT P6SM OVC012
     FM030600 04003KT 3SM BR OVC008
     FM031000 07004KT 2SM -RA BR OVC004
     FM031600 10007KT 2SM BR OVC004=



000
FTUS42 KFFC 022120 AAB
TAFATL
TAF AMD
KATL 022120Z 0221/0324 30008KT P6SM SCT025 BKN050
      TEMPO 0221/0224 -SHRA BKN020
     FM030000 33006KT P6SM OVC010
     FM030600 04003KT 3SM BR OVC008
     FM031000 07004KT 2SM -RA BR OVC004
     FM031600 10007KT 2SM BR OVC004
     FM032100 11006KT 3SM BR OVC007=



000
FTUS42 KFFC 021958 AAA
TAFATL
TAF AMD
KATL 021958Z 0220/0324 32006KT P6SM -SHRA OVC025
      TEMPO 0220/0221 SCT015 BKN040
     FM030000 33005KT P6SM OVC025
     FM030600 04003KT 3SM BR OVC008
     FM031000 07004KT 2SM -RA BR OVC004
     FM031600 10007KT 2SM BR OVC004
     FM032100 11006KT 3SM BR OVC007=



000
FTUS42 KFFC 021958 AAA
TAFATL
TAF AMD
KATL 021958Z 0220/0324 32006KT P6SM -SHRA OVC025
      TEMPO 0220/0221 SCT015 BKN040
     FM030000 33005KT P6SM OVC025
     FM030600 04003KT 3SM BR OVC008
     FM031000 07004KT 2SM -RA BR OVC004
     FM031600 10007KT 2SM BR OVC004
     FM032100 11006KT 3SM BR OVC007=



000
FTUS42 KFFC 021730
TAFMCN
TAF
KMCN 021730Z 0218/0318 30005KT P6SM FEW045
      TEMPO 0218/0220 BKN015
     FM022000 30004KT P6SM OVC025
     FM030600 00000KT 3SM BR OVC012
     FM030900 09003KT 2SM BR OVC007=



000
FTUS42 KFFC 021730
TAFCSG
TAF
KCSG 021730Z 0218/0318 31004KT P6SM OVC025
      TEMPO 0218/0221 SCT015 BKN040
     FM030000 02003KT P6SM OVC020
     FM030600 08003KT 3SM BR OVC012
     FM030900 12003KT 3SM BR OVC008=



000
FTUS42 KFFC 021730
TAFFTY
TAF
KFTY 021730Z 0218/0318 32005KT P6SM OVC015
      TEMPO 0218/0221 SCT015 BKN040
     FM022100 31006KT P6SM OVC025
     FM030600 04003KT 3SM BR OVC008
     FM031000 07004KT 2SM -RA BR OVC004
     FM031600 10007KT 2SM BR OVC004=



000
FTUS42 KFFC 021730
TAFAHN
TAF
KAHN 021730Z 0218/0318 28006KT P6SM FEW045
     FM022100 28004KT P6SM BKN035
     FM030300 00000KT 4SM -RA OVC020
     FM030700 07006KT 3SM -RA BR OVC006=



000
FTUS42 KFFC 021730
TAFMCN
TAF
KMCN 021730Z 0218/0318 30005KT P6SM FEW045
      TEMPO 0218/0220 BKN015
     FM022000 30004KT P6SM OVC025
     FM030600 00000KT 3SM BR OVC012
     FM030900 09003KT 2SM BR OVC007=



000
FTUS42 KFFC 021730
TAFCSG
TAF
KCSG 021730Z 0218/0318 31004KT P6SM OVC025
      TEMPO 0218/0221 SCT015 BKN040
     FM030000 02003KT P6SM OVC020
     FM030600 08003KT 3SM BR OVC012
     FM030900 12003KT 3SM BR OVC008=



000
FTUS42 KFFC 021730
TAFRYY
TAF
KRYY 021730Z 0218/0318 32005KT P6SM OVC015
      TEMPO 0218/0221 SCT015 BKN040
     FM022100 31006KT P6SM OVC025
     FM030600 04003KT 3SM BR OVC008
     FM031000 07004KT 2SM -RA BR OVC004
     FM031600 10007KT 2SM BR OVC004=



000
FTUS42 KFFC 021730
TAFRYY
TAF
KRYY 021730Z 0218/0318 32005KT P6SM OVC015
      TEMPO 0218/0221 SCT015 BKN040
     FM022100 31006KT P6SM OVC025
     FM030600 04003KT 3SM BR OVC008
     FM031000 07004KT 2SM -RA BR OVC004
     FM031600 10007KT 2SM BR OVC004=



000
FTUS42 KFFC 021730
TAFAHN
TAF
KAHN 021730Z 0218/0318 28006KT P6SM FEW045
     FM022100 28004KT P6SM BKN035
     FM030300 00000KT 4SM -RA OVC020
     FM030700 07006KT 3SM -RA BR OVC006=



000
FTUS42 KFFC 021730
TAFPDK
TAF
KPDK 021730Z 0218/0318 32005KT P6SM OVC015
      TEMPO 0218/0221 SCT015 BKN040
     FM022100 31006KT P6SM OVC025
     FM030600 04003KT 3SM BR OVC008
     FM031000 07004KT 2SM -RA BR OVC004
     FM031600 10007KT 2SM BR OVC004=



000
FTUS42 KFFC 021730
TAFATL
TAF
KATL 021730Z 0218/0324 32006KT P6SM OVC015
      TEMPO 0218/0221 SCT015 BKN040
     FM022100 31006KT P6SM OVC025
     FM030600 04003KT 3SM BR OVC008
     FM031000 07004KT 2SM -RA BR OVC004
     FM031600 10007KT 2SM BR OVC004
     FM032100 11006KT 3SM BR OVC007=



000
FTUS42 KFFC 021730
TAFPDK
TAF
KPDK 021730Z 0218/0318 32005KT P6SM OVC015
      TEMPO 0218/0221 SCT015 BKN040
     FM022100 31006KT P6SM OVC025
     FM030600 04003KT 3SM BR OVC008
     FM031000 07004KT 2SM -RA BR OVC004
     FM031600 10007KT 2SM BR OVC004=



000
FTUS42 KFFC 021730
TAFATL
TAF
KATL 021730Z 0218/0324 32006KT P6SM OVC015
      TEMPO 0218/0221 SCT015 BKN040
     FM022100 31006KT P6SM OVC025
     FM030600 04003KT 3SM BR OVC008
     FM031000 07004KT 2SM -RA BR OVC004
     FM031600 10007KT 2SM BR OVC004
     FM032100 11006KT 3SM BR OVC007=



000
FTUS42 KFFC 021730
TAFFTY
TAF
KFTY 021730Z 0218/0318 32005KT P6SM OVC015
      TEMPO 0218/0221 SCT015 BKN040
     FM022100 31006KT P6SM OVC025
     FM030600 04003KT 3SM BR OVC008
     FM031000 07004KT 2SM -RA BR OVC004
     FM031600 10007KT 2SM BR OVC004=



000
FTUS42 KFFC 021556 AAB
TAFATL
TAF AMD
KATL 021556Z 0216/0318 31005KT P6SM OVC008
     FM022000 32004KT P6SM OVC012
     FM030600 04003KT 1SM -DZ BR OVC008
     FM031000 07004KT 2SM -RA BR OVC004
     FM031600 10007KT 1SM -SHRA OVC008=



000
FTUS42 KFFC 021556 AAB
TAFATL
TAF AMD
KATL 021556Z 0216/0318 31005KT P6SM OVC008
     FM022000 32004KT P6SM OVC012
     FM030600 04003KT 1SM -DZ BR OVC008
     FM031000 07004KT 2SM -RA BR OVC004
     FM031600 10007KT 1SM -SHRA OVC008=



000
FTUS42 KFFC 021529 AAA
TAFAHN
TAF AMD
KAHN 021529Z 0215/0312 26005KT P6SM SCT008
     FM021900 28005KT P6SM OVC012
     FM030100 00000KT P6SM OVC025
     FM030200 00000KT 4SM -RA OVC020
     FM030400 00000KT 2SM -RA BR OVC012
     FM030700 05006KT 1SM -RA BR OVC008=



000
FTUS42 KFFC 021403 AAA
TAFATL
TAF AMD
KATL 021403Z 0214/0318 30003KT 2SM -DZ BR OVC004
     FM021500 31005KT P6SM OVC008
     FM022000 32004KT P6SM OVC012
     FM030600 04003KT 1SM -DZ BR OVC008
     FM031000 07004KT 2SM -RA BR OVC004
     FM031600 10007KT 1SM -SHRA OVC008=



000
FTUS42 KFFC 021403 AAA
TAFATL
TAF AMD
KATL 021403Z 0214/0318 30003KT 2SM -DZ BR OVC004
     FM021500 31005KT P6SM OVC008
     FM022000 32004KT P6SM OVC012
     FM030600 04003KT 1SM -DZ BR OVC008
     FM031000 07004KT 2SM -RA BR OVC004
     FM031600 10007KT 1SM -SHRA OVC008=



000
FTUS42 KFFC 021255 AAA
TAFRYY
TAF AMD
KRYY 021255Z 0213/0312 00000KT 2SM -DZ BR OVC006
      TEMPO 0213/0214 1/2SM FG OVC002
     FM021500 32005KT P6SM OVC008
     FM021900 33004KT P6SM OVC012
     FM030500 00000KT P6SM OVC008
     FM030800 08003KT 2SM -RA BR OVC008=



000
FTUS42 KFFC 021130
TAFATL
TAF
KATL 021130Z 0212/0318 00000KT 2SM -DZ BR OVC004
      TEMPO 0212/0214 1/2SM FG OVC002
     FM021500 31005KT P6SM OVC008
     FM022000 32004KT P6SM OVC012
     FM030600 04003KT 1SM -DZ BR OVC008
     FM031000 07004KT 2SM -RA BR OVC004
     FM031600 10007KT 1SM -SHRA OVC008=



000
FTUS42 KFFC 021130
TAFFTY
TAF
KFTY 021130Z 0212/0312 00000KT 2SM -DZ BR OVC003
      TEMPO 0212/0214 1/2SM FG OVC002
     FM021500 31004KT P6SM OVC008
     FM021900 32005KT P6SM OVC012
     FM030500 02003KT 5SM -DZ BR OVC008
     FM030800 00000KT 2SM -RA BR OVC008=



000
FTUS42 KFFC 021130
TAFRYY
TAF
KRYY 021130Z 0212/0312 00000KT 2SM -DZ BR OVC006
     FM021500 32005KT P6SM OVC008
     FM021900 33004KT P6SM OVC012
      TEMPO 0220/0223 FEW012 BKN025
     FM030500 00000KT P6SM OVC008
     FM030800 08003KT 2SM -RA BR OVC008=



000
FTUS42 KFFC 021130
TAFCSG
TAF
KCSG 021130Z 0212/0312 00000KT 1/4SM +DZ FG VV001
     FM021400 VRB03KT 1SM -DZ BR OVC005
     FM021600 00000KT 6SM BR OVC008
     FM022300 01003KT P6SM OVC012
     FM030000 02003KT P6SM OVC020
     FM030500 08003KT 3SM BR OVC012
     FM030900 12003KT 3SM BR OVC008=



000
FTUS42 KFFC 021130
TAFPDK
TAF
KPDK 021130Z 0212/0312 00000KT 2SM -DZ BR OVC006
      TEMPO 0212/0214 1/2SM FG OVC002
     FM021500 30005KT P6SM OVC008
     FM022000 30004KT P6SM OVC012
     FM030600 00000KT 1SM -DZ BR OVC008
     FM030800 07004KT 1SM -RA BR OVC008=



000
FTUS42 KFFC 021130
TAFMCN
TAF
KMCN 021130Z 0212/0312 00000KT 1/4SM +DZ FG VV001
     FM021400 VRB03KT 1SM -DZ BR OVC008
     FM021600 00000KT 6SM BR OVC010
     FM021800 30005KT P6SM OVC015
     FM022000 30004KT P6SM OVC025
     FM030300 00000KT P6SM OVC020
     FM030600 00000KT 3SM BR OVC012=



000
FTUS42 KFFC 021130
TAFAHN
TAF
KAHN 021130Z 0212/0312 00000KT 1/2SM -DZ FG VV002
     FM021300 27004KT 3SM -DZ BR OVC005
     FM021500 28005KT P6SM OVC008
     FM021900 28005KT P6SM OVC012
     FM030100 00000KT P6SM OVC025
     FM030200 00000KT 4SM -RA OVC020
     FM030400 00000KT 2SM -RA BR OVC012
     FM030700 05006KT 1SM -RA BR OVC008=



000
FTUS42 KFFC 020933 AAA
TAFCSG
TAF AMD
KCSG 020933Z 0210/0306 00000KT 3SM -DZ BR OVC004
      TEMPO 0210/0214 1SM -DZ BR OVC002
     FM021500 24005KT 4SM -DZ OVC007
     FM022000 31004KT P6SM OVC012
     FM022300 01003KT P6SM OVC015
     FM030400 05003KT P6SM OVC012=



000
FTUS42 KFFC 020930 AAC
TAFATL
TAF AMD
KATL 020930Z 0210/0312 00000KT 1/4SM -DZ FG VV002
      TEMPO 0212/0214 31005KT 1SM -DZ OVC005
     FM021400 29005KT 4SM -DZ OVC007
     FM021900 31007KT P6SM BKN012
     FM030100 34004KT 6SM BR OVC012
     FM030500 03003KT 3SM BR OVC007=



000
FTUS42 KFFC 020921 CCA
TAFFTY
TAF COR
KFTY 020921Z 0209/0306 00000KT 1/4SM FG VV002
      TEMPO 0212/0214 31005KT 1SM -DZ OVC003
     FM021400 28004KT 4SM -DZ OVC007
     FM021900 31005KT P6SM BKN012
     FM030100 36003KT P6SM OVC010
     FM030500 02003KT P6SM OVC008=



000
FTUS42 KFFC 020921 AAA
TAFPDK
TAF AMD
KPDK 020921Z 0209/0306 28003KT 1/4SM FG VV002
      TEMPO 0212/0214 31005KT 1SM -DZ OVC005
     FM021400 28004KT 4SM -DZ OVC007
     FM021900 31005KT P6SM BKN012
     FM030100 34003KT 6SM BR OVC009=



000
FTUS42 KFFC 020921 AAA
TAFPDK
TAF AMD
KPDK 020921Z 0209/0306 28003KT 1/4SM FG VV002
      TEMPO 0212/0214 31005KT 1SM -DZ OVC005
     FM021400 28004KT 4SM -DZ OVC007
     FM021900 31005KT P6SM BKN012
     FM030100 34003KT 6SM BR OVC009=



000
FTUS42 KFFC 020921 CCA
TAFFTY
TAF COR
KFTY 020921Z 0209/0306 00000KT 1/4SM FG VV002
      TEMPO 0212/0214 31005KT 1SM -DZ OVC003
     FM021400 28004KT 4SM -DZ OVC007
     FM021900 31005KT P6SM BKN012
     FM030100 36003KT P6SM OVC010
     FM030500 02003KT P6SM OVC008=



000
FTUS42 KFFC 020913 AAB
TAFFTY
TAF AMD
KFTY 020913Z 0209/0306 00000KT 1/4SM FG VV002
      TEMPO 0212/0214 31005KT 1SM -DZ OVC003
     FM021500 28004KT 4SM -DZ OVC007
     FM021900 31005KT P6SM BKN012
     FM030100 36003KT P6SM OVC010
     FM030500 02003KT P6SM OVC008=



000
FTUS42 KFFC 020913 AAB
TAFFTY
TAF AMD
KFTY 020913Z 0209/0306 00000KT 1/4SM FG VV002
      TEMPO 0212/0214 31005KT 1SM -DZ OVC003
     FM021500 28004KT 4SM -DZ OVC007
     FM021900 31005KT P6SM BKN012
     FM030100 36003KT P6SM OVC010
     FM030500 02003KT P6SM OVC008=



000
FTUS42 KFFC 020912 AAB
TAFATL
TAF AMD
KATL 020912Z 0209/0312 00000KT 1/4SM -DZ FG VV002
      TEMPO 0212/0214 31005KT 1SM -DZ OVC005
     FM021400 29005KT 4SM -DZ OVC007
     FM021900 31007KT P6SM BKN012
     FM030100 34004KT 6SM BR OVC012
     FM030500 03003KT 3SM BR OVC007=



000
FTUS42 KFFC 020912 AAB
TAFATL
TAF AMD
KATL 020912Z 0209/0312 00000KT 1/4SM -DZ FG VV002
      TEMPO 0212/0214 31005KT 1SM -DZ OVC005
     FM021400 29005KT 4SM -DZ OVC007
     FM021900 31007KT P6SM BKN012
     FM030100 34004KT 6SM BR OVC012
     FM030500 03003KT 3SM BR OVC007=



000
FTUS42 KFFC 020741 AAA
TAFFTY
TAF AMD
KFTY 020741Z 0208/0306 00000KT 3SM BR OVC004
      TEMPO 0210/0214 31005KT 1SM -DZ OVC003
     FM021500 28004KT 4SM -DZ OVC007
     FM021900 31005KT P6SM BKN012
     FM030100 36003KT P6SM OVC010
     FM030500 02003KT P6SM OVC008=



000
FTUS42 KFFC 020740 AAA
TAFATL
TAF AMD
KATL 020740Z 0208/0312 23003KT 3SM -DZ BR OVC003
      TEMPO 0210/0214 31005KT 1SM -DZ OVC005
     FM021400 29005KT 4SM -DZ OVC007
     FM021900 31007KT P6SM BKN012
     FM030100 34004KT 6SM BR OVC012
     FM030500 03003KT 3SM BR OVC007=



000
FTUS42 KFFC 020525
TAFATL
TAF
KATL 020525Z 0206/0312 33003KT 3SM BR OVC004
     FM020700 23003KT 1SM -DZ BR OVC003
      TEMPO 0210/0214 31005KT 1SM -DZ OVC005
     FM021400 29005KT 4SM -DZ OVC007
     FM021900 31007KT P6SM BKN012
     FM030100 34004KT 6SM BR OVC012
     FM030500 03003KT 3SM BR OVC007=



000
FTUS42 KFFC 020525
TAFAHN
TAF
KAHN 020525Z 0206/0306 20004KT 3SM BR BKN003 OVC012
     FM020800 00000KT 1SM -DZ OVC004
     FM021500 27004KT 4SM -DZ OVC008
     FM021700 28005KT P6SM OVC012
     FM022200 29004KT P6SM OVC025
     FM030200 00000KT P6SM OVC012=



000
FTUS42 KFFC 020525
TAFPDK
TAF
KPDK 020525Z 0206/0306 00000KT 2SM BR OVC003
     FM020700 VRB03KT 1SM -DZ BR OVC004
     FM021500 28004KT 4SM -DZ OVC007
     FM021900 31005KT P6SM BKN012
     FM030100 34003KT 6SM BR OVC009=



000
FTUS42 KFFC 020525
TAFFTY
TAF
KFTY 020525Z 0206/0306 00000KT 5SM BR OVC005
     FM020700 VRB03KT 1SM -DZ OVC004
     FM021500 28004KT 4SM -DZ OVC007
     FM021900 31005KT P6SM BKN012
     FM030100 36003KT P6SM OVC010
     FM030500 02003KT P6SM OVC008=



000
FTUS42 KFFC 020525
TAFMCN
TAF
KMCN 020525Z 0206/0306 00000KT 1/2SM -DZ FG VV002
     FM021000 VRB03KT 1SM -DZ OVC004
     FM021500 22004KT 4SM -DZ OVC007
     FM021800 30005KT P6SM OVC012
     FM022200 32003KT P6SM OVC025
     FM030200 00000KT P6SM OVC015=



000
FTUS42 KFFC 020525
TAFRYY
TAF
KRYY 020525Z 0206/0306 VRB03KT 1SM -DZ OVC003
     FM021500 28004KT 4SM -RA OVC007
     FM021900 31005KT P6SM VCSH BKN012
     FM030100 34003KT 6SM BR OVC009
      AMD NOT SKED TIL 021200=



000
FTUS42 KFFC 020525
TAFCSG
TAF
KCSG 020525Z 0206/0306 15003KT 6SM BR OVC006
     FM020700 VRB03KT 1SM -DZ OVC004
     FM021500 24005KT 4SM -DZ OVC007
     FM022000 31004KT P6SM OVC012
     FM022300 01003KT P6SM OVC015
     FM030400 05003KT P6SM OVC012=



000
FTUS42 KFFC 020317 AAB
TAFATL
TAF AMD
KATL 020317Z 0203/0306 17005KT 3SM -DZ BR OVC004
     FM020500 19003KT 4SM -RA BR OVC006
     FM020700 23003KT 1SM -DZ BR OVC003
     FM021500 28005KT 4SM -RA OVC007
     FM021900 31007KT P6SM VCSH BKN012 PROB30 0220/0301 5SM -SHRA
      BKN009
     FM030100 34004KT 6SM BR OVC009
     FM030500 03003KT 4SM BR OVC007=



000
FTUS42 KFFC 020317 AAB
TAFATL
TAF AMD
KATL 020317Z 0203/0306 17005KT 3SM -DZ BR OVC004
     FM020500 19003KT 4SM -RA BR OVC006
     FM020700 23003KT 1SM -DZ BR OVC003
     FM021500 28005KT 4SM -RA OVC007
     FM021900 31007KT P6SM VCSH BKN012 PROB30 0220/0301 5SM -SHRA
      BKN009
     FM030100 34004KT 6SM BR OVC009
     FM030500 03003KT 4SM BR OVC007=



000
FTUS42 KFFC 020141 AAA
TAFATL
TAF AMD
KATL 020141Z 0202/0306 15005KT 3SM -DZ BR OVC003
     FM020500 16003KT 4SM -RA BR OVC006
     FM020700 22003KT 1SM -DZ BR OVC003
     FM021500 28005KT 4SM -RA OVC007
     FM021900 31007KT P6SM VCSH BKN012 PROB30 0220/0301 5SM -SHRA
      BKN009
     FM030100 34004KT 6SM BR OVC009
     FM030500 03003KT 4SM BR OVC007=



000
FTUS42 KFFC 020141 AAA
TAFPDK
TAF AMD
KPDK 020141Z 0202/0224 00000KT 2SM -DZ BR OVC004
     FM020500 00000KT 4SM -RA BR OVC007
     FM020700 VRB03KT 1SM -DZ BR OVC004
     FM021500 28004KT 4SM -RA OVC007
     FM021900 31005KT P6SM VCSH BKN012
     FM022300 34003KT 6SM BR OVC009=



000
FTUS42 KFFC 012355 AAA
TAFRYY
TAF AMD
KRYY 012355Z 0200/0224 10004KT 6SM BR OVC010
     FM020200 00000KT 5SM -DZ OVC008
     FM020500 00000KT 4SM -RA OVC006
     FM020700 VRB03KT 1SM -DZ OVC004
     FM021500 28004KT 4SM -RA OVC007
     FM021900 31005KT P6SM VCSH BKN012
     FM022300 34003KT 6SM BR OVC009=



000
FTUS42 KFFC 012355 AAA
TAFRYY
TAF AMD
KRYY 012355Z 0200/0224 10004KT 6SM BR OVC010
     FM020200 00000KT 5SM -DZ OVC008
     FM020500 00000KT 4SM -RA OVC006
     FM020700 VRB03KT 1SM -DZ OVC004
     FM021500 28004KT 4SM -RA OVC007
     FM021900 31005KT P6SM VCSH BKN012
     FM022300 34003KT 6SM BR OVC009=



000
FTUS42 KFFC 012327
TAFAHN
TAF
KAHN 012327Z 0200/0224 00000KT 2SM BR OVC004
      TEMPO 0200/0204 1SM -DZ BR OVC004
     FM020600 00000KT 4SM -RA OVC006
     FM020800 00000KT 1SM -DZ OVC004
     FM021600 24004KT 4SM -DZ OVC007
     FM022000 27005KT P6SM VCSH BKN012=



000
FTUS42 KFFC 012327
TAFRYY
TAF
KRYY 012327Z 0200/0224 09003KT 6SM BR OVC007
     FM020200 00000KT 3SM -DZ OVC005
     FM020500 00000KT 4SM -RA OVC007
     FM020700 VRB03KT 1SM -DZ OVC004
     FM021500 28004KT 4SM -RA OVC007
     FM021900 31005KT P6SM VCSH BKN012
     FM022300 34003KT 6SM BR OVC009=



000
FTUS42 KFFC 012327
TAFMCN
TAF
KMCN 012327Z 0200/0224 05004KT 4SM BR OVC006
      TEMPO 0200/0202 2SM -DZ BR OVC004
     FM020200 00000KT 2SM -DZ BR OVC003
     FM020700 VRB03KT 4SM -RA OVC006
     FM020900 VRB03KT 1SM -DZ OVC004
     FM021500 22004KT 4SM -DZ OVC007
     FM022000 26005KT P6SM VCSH BKN012=



000
FTUS42 KFFC 012327
TAFPDK
TAF
KPDK 012327Z 0200/0224 09003KT 6SM BR OVC007
     FM020200 00000KT 3SM -DZ OVC005
     FM020500 00000KT 4SM -RA OVC007
     FM020700 VRB03KT 1SM -DZ OVC004
     FM021500 28004KT 4SM -RA OVC007
     FM021900 31005KT P6SM VCSH BKN012
     FM022300 34003KT 6SM BR OVC009=



000
FTUS42 KFFC 012327
TAFATL
TAF
KATL 012327Z 0200/0306 09004KT 5SM BR OVC006
     FM020200 12004KT 3SM -DZ OVC005
     FM020500 15003KT 4SM -RA OVC006
     FM020700 22003KT 1SM -DZ BR OVC003
     FM021500 28005KT 4SM -RA OVC007
     FM021900 31007KT P6SM VCSH BKN012 PROB30 0220/0301 5SM -SHRA
      BKN009
     FM030100 34004KT 6SM BR OVC009
     FM030500 03003KT 4SM BR OVC007=



000
FTUS42 KFFC 012327
TAFFTY
TAF
KFTY 012327Z 0200/0224 09003KT 6SM BR OVC007
     FM020200 00000KT 3SM -DZ OVC005
     FM020500 00000KT 4SM -RA OVC007
     FM020700 VRB03KT 1SM -DZ OVC004
     FM021500 28004KT 4SM -RA OVC007
     FM021900 31005KT P6SM VCSH BKN012
     FM022300 34003KT 6SM BR OVC009=



000
FTUS42 KFFC 012327
TAFCSG
TAF
KCSG 012327Z 0200/0224 09003KT 6SM BR OVC012
      TEMPO 0200/0204 4SM -RA BR OVC008
     FM020400 VRB03KT 4SM -RA OVC007
     FM020700 VRB03KT 1SM -DZ OVC004
     FM021500 24005KT 4SM -DZ OVC007
     FM022000 28005KT P6SM VCSH BKN012=



000
FTUS42 KFFC 012212 AAA
TAFCSG
TAF AMD
KCSG 012212Z 0122/0218 08004KT P6SM OVC012
     FM020000 09003KT 6SM BR OVC009
      TEMPO 0200/0204 4SM -RA BR OVC006
     FM020400 VRB03KT 4SM -RA OVC006
     FM020700 VRB03KT 1SM -DZ OVC004
     FM021500 26005KT 4SM -DZ OVC008=



000
FTUS42 KFFC 012212 AAA
TAFCSG
TAF AMD
KCSG 012212Z 0122/0218 08004KT P6SM OVC012
     FM020000 09003KT 6SM BR OVC009
      TEMPO 0200/0204 4SM -RA BR OVC006
     FM020400 VRB03KT 4SM -RA OVC006
     FM020700 VRB03KT 1SM -DZ OVC004
     FM021500 26005KT 4SM -DZ OVC008=



000
FTUS42 KFFC 012203 AAA
TAFMCN
TAF AMD
KMCN 012203Z 0122/0218 05004KT 5SM BR OVC006
      TEMPO 0122/0202 3SM -DZ BR OVC004
     FM020200 00000KT 2SM -DZ OVC003
     FM020700 VRB03KT 4SM -RA OVC006
     FM020900 VRB03KT 1SM -DZ OVC004
     FM021500 26005KT 4SM -DZ OVC008=



000
FTUS42 KFFC 012201 AAB
TAFAHN
TAF AMD
KAHN 012201Z 0122/0218 08003KT 4SM BR OVC005
      TEMPO 0122/0201 3SM -DZ BR OVC004
     FM020100 00000KT 2SM -DZ OVC004
     FM020600 VRB03KT 4SM -RA OVC006
     FM020800 VRB02KT 1SM -DZ OVC004
     FM021500 26004KT 4SM -DZ OVC007=



000
FTUS42 KFFC 012159 AAB
TAFRYY
TAF AMD
KRYY 012159Z 0122/0218 09003KT 6SM BR OVC010
      TEMPO 0122/0201 4SM -DZ BR OVC007
     FM020100 00000KT 3SM -DZ OVC005
     FM020500 VRB03KT 4SM -RA OVC008
     FM020700 VRB02KT 1SM -DZ OVC004
     FM021500 30005KT 4SM -DZ OVC007=



000
FTUS42 KFFC 012157 AAA
TAFPDK
TAF AMD
KPDK 012157Z 0122/0218 08003KT 5SM BR OVC006
      TEMPO 0122/0201 3SM -DZ BR OVC005
     FM020100 00000KT 3SM -DZ OVC005
     FM020500 VRB03KT 4SM -RA OVC006
     FM020700 VRB02KT 1SM -DZ OVC004
     FM021500 30005KT 4SM -DZ OVC007=



000
FTUS42 KFFC 012157 AAA
TAFPDK
TAF AMD
KPDK 012157Z 0122/0218 08003KT 5SM BR OVC006
      TEMPO 0122/0201 3SM -DZ BR OVC005
     FM020100 00000KT 3SM -DZ OVC005
     FM020500 VRB03KT 4SM -RA OVC006
     FM020700 VRB02KT 1SM -DZ OVC004
     FM021500 30005KT 4SM -DZ OVC007=



000
FTUS42 KFFC 012156 AAA
TAFFTY
TAF AMD
KFTY 012156Z 0122/0218 07003KT 6SM BR OVC007
      TEMPO 0122/0201 3SM -DZ BR OVC005
     FM020100 00000KT 3SM -DZ OVC005
     FM020500 VRB03KT 4SM -RA OVC006
     FM020700 VRB02KT 1SM -DZ OVC004
     FM021500 30005KT 4SM -DZ OVC007=



000
FTUS42 KFFC 012149 AAB
TAFATL
TAF AMD
KATL 012149Z 0122/0224 07005KT 4SM BR OVC005
      TEMPO 0122/0124 2SM -DZ BR OVC005
     FM020200 12004KT 3SM -DZ OVC005
     FM020500 VRB03KT 4SM -RA OVC006
     FM020700 VRB03KT 1SM -DZ OVC004
     FM021500 30005KT 4SM -DZ OVC007
     FM021900 30006KT P6SM BKN012=



000
FTUS42 KFFC 012149 AAB
TAFATL
TAF AMD
KATL 012149Z 0122/0224 07005KT 4SM BR OVC005
      TEMPO 0122/0124 2SM -DZ BR OVC005
     FM020200 12004KT 3SM -DZ OVC005
     FM020500 VRB03KT 4SM -RA OVC006
     FM020700 VRB03KT 1SM -DZ OVC004
     FM021500 30005KT 4SM -DZ OVC007
     FM021900 30006KT P6SM BKN012=



000
FTUS42 KFFC 011956 AAA
TAFRYY
TAF AMD
KRYY 011956Z 0120/0218 11008KT P6SM OVC008
      TEMPO 0120/0122 2SM -DZ BR OVC005
     FM012200 08005KT P6SM BKN012
     FM020200 14005KT 3SM -DZ OVC008
     FM020600 VRB03KT 1SM -DZ OVC004
     FM021500 30005KT 4SM -DZ OVC008=



000
FTUS42 KFFC 011956 AAA
TAFRYY
TAF AMD
KRYY 011956Z 0120/0218 11008KT P6SM OVC008
      TEMPO 0120/0122 2SM -DZ BR OVC005
     FM012200 08005KT P6SM BKN012
     FM020200 14005KT 3SM -DZ OVC008
     FM020600 VRB03KT 1SM -DZ OVC004
     FM021500 30005KT 4SM -DZ OVC008=



000
FTUS42 KFFC 011955 AAA
TAFATL
TAF AMD
KATL 011955Z 0120/0224 08010KT 4SM BR OVC006
      TEMPO 0120/0122 2SM -DZ BR OVC005
     FM012200 08006KT 6SM BR BKN012
     FM020200 14005KT 3SM -DZ OVC008
     FM020600 VRB03KT 1SM -DZ OVC004
     FM021500 30005KT 4SM -DZ OVC008
     FM021900 30006KT P6SM BKN012=



000
FTUS42 KFFC 011955 AAA
TAFATL
TAF AMD
KATL 011955Z 0120/0224 08010KT 4SM BR OVC006
      TEMPO 0120/0122 2SM -DZ BR OVC005
     FM012200 08006KT 6SM BR BKN012
     FM020200 14005KT 3SM -DZ OVC008
     FM020600 VRB03KT 1SM -DZ OVC004
     FM021500 30005KT 4SM -DZ OVC008
     FM021900 30006KT P6SM BKN012=



000
FTUS42 KFFC 011952 AAA
TAFAHN
TAF AMD
KAHN 011952Z 0120/0218 07008KT P6SM OVC006
      TEMPO 0120/0122 2SM -RA BR OVC003
     FM012200 08006KT 4SM BR OVC006
     FM020300 VRB03KT 1SM -DZ OVC003
     FM021500 26005KT 4SM -DZ OVC008=



000
FTUS42 KFFC 011733
TAFATL
TAF
KATL 011733Z 0118/0224 08010KT P6SM OVC006
     FM012200 08005KT P6SM BKN012
     FM020200 14005KT 3SM -DZ OVC008
     FM020600 VRB03KT 1SM -DZ OVC004
     FM021500 30005KT 4SM -DZ OVC008
     FM021900 30006KT P6SM BKN012=



000
FTUS42 KFFC 011733
TAFPDK
TAF
KPDK 011733Z 0118/0218 08006KT 5SM BR OVC007
     FM012200 08005KT P6SM BKN012
     FM020200 14005KT 3SM -DZ OVC008
     FM020600 VRB03KT 1SM -DZ OVC004
     FM021500 30005KT 4SM -DZ OVC008=



000
FTUS42 KFFC 011733
TAFMCN
TAF
KMCN 011733Z 0118/0218 08010KT 3SM BR OVC005
      TEMPO 0118/0121 1SM -DZ BR OVC003
     FM012100 08005KT 5SM BR BKN008
     FM020300 VRB03KT 1SM -DZ OVC003
     FM021500 26005KT 4SM -DZ OVC008=



000
FTUS42 KFFC 011733
TAFPDK
TAF
KPDK 011733Z 0118/0218 08006KT 5SM BR OVC007
     FM012200 08005KT P6SM BKN012
     FM020200 14005KT 3SM -DZ OVC008
     FM020600 VRB03KT 1SM -DZ OVC004
     FM021500 30005KT 4SM -DZ OVC008=



000
FTUS42 KFFC 011733
TAFMCN
TAF
KMCN 011733Z 0118/0218 08010KT 3SM BR OVC005
      TEMPO 0118/0121 1SM -DZ BR OVC003
     FM012100 08005KT 5SM BR BKN008
     FM020300 VRB03KT 1SM -DZ OVC003
     FM021500 26005KT 4SM -DZ OVC008=



000
FTUS42 KFFC 011733
TAFATL
TAF
KATL 011733Z 0118/0224 08010KT P6SM OVC006
     FM012200 08005KT P6SM BKN012
     FM020200 14005KT 3SM -DZ OVC008
     FM020600 VRB03KT 1SM -DZ OVC004
     FM021500 30005KT 4SM -DZ OVC008
     FM021900 30006KT P6SM BKN012=



000
FTUS42 KFFC 011733
TAFFTY
TAF
KFTY 011733Z 0118/0218 08006KT P6SM OVC008
     FM012200 08005KT P6SM BKN012
     FM020200 14005KT 3SM -DZ OVC008
     FM020600 VRB03KT 1SM -DZ OVC004
     FM021500 30005KT 4SM -DZ OVC008=



000
FTUS42 KFFC 011733
TAFRYY
TAF
KRYY 011733Z 0118/0218 11008KT 5SM BR OVC008
      TEMPO 0118/0121 2SM BR OVC005
     FM012100 08005KT P6SM BKN012
     FM020200 14005KT 3SM -DZ OVC008
     FM020600 VRB03KT 1SM -DZ OVC004
     FM021500 30005KT 4SM -DZ OVC008=



000
FTUS42 KFFC 011733
TAFAHN
TAF
KAHN 011733Z 0118/0218 11008G18KT 3SM BR OVC005
      TEMPO 0118/0122 1SM -RA BR OVC003
     FM012200 14008KT 4SM BR OVC006
     FM020300 VRB03KT 1SM -DZ OVC003
     FM021500 26005KT 4SM -DZ OVC008=



000
FTUS42 KFFC 011733
TAFCSG
TAF
KCSG 011733Z 0118/0218 08010KT 3SM BR OVC005
     FM012100 08005KT 5SM BR BKN008
     FM020300 VRB03KT 1SM -DZ OVC003
     FM021500 26005KT 4SM -DZ OVC008=



000
FTUS42 KFFC 011733
TAFAHN
TAF
KAHN 011733Z 0118/0218 11008G18KT 3SM BR OVC005
      TEMPO 0118/0122 1SM -RA BR OVC003
     FM012200 14008KT 4SM BR OVC006
     FM020300 VRB03KT 1SM -DZ OVC003
     FM021500 26005KT 4SM -DZ OVC008=



000
FTUS42 KFFC 011733
TAFCSG
TAF
KCSG 011733Z 0118/0218 08010KT 3SM BR OVC005
     FM012100 08005KT 5SM BR BKN008
     FM020300 VRB03KT 1SM -DZ OVC003
     FM021500 26005KT 4SM -DZ OVC008=



000
FTUS42 KFFC 011733
TAFRYY
TAF
KRYY 011733Z 0118/0218 11008KT 5SM BR OVC008
      TEMPO 0118/0121 2SM BR OVC005
     FM012100 08005KT P6SM BKN012
     FM020200 14005KT 3SM -DZ OVC008
     FM020600 VRB03KT 1SM -DZ OVC004
     FM021500 30005KT 4SM -DZ OVC008=



000
FTUS42 KFFC 011733
TAFFTY
TAF
KFTY 011733Z 0118/0218 08006KT P6SM OVC008
     FM012200 08005KT P6SM BKN012
     FM020200 14005KT 3SM -DZ OVC008
     FM020600 VRB03KT 1SM -DZ OVC004
     FM021500 30005KT 4SM -DZ OVC008=



000
FTUS42 KFFC 011624 AAB
TAFMCN
TAF AMD
KMCN 011624Z 0116/0212 08010KT 3SM BR OVC005
      TEMPO 0116/0119 1SM -DZ BR OVC003
     FM011900 08005KT 6SM BR BKN008
     FM020200 00000KT 2SM -DZ OVC004=



000
FTUS42 KFFC 011624 AAB
TAFMCN
TAF AMD
KMCN 011624Z 0116/0212 08010KT 3SM BR OVC005
      TEMPO 0116/0119 1SM -DZ BR OVC003
     FM011900 08005KT 6SM BR BKN008
     FM020200 00000KT 2SM -DZ OVC004=



000
FTUS42 KFFC 011558 AAC
TAFATL
TAF AMD
KATL 011558Z 0116/0218 08010KT 6SM BR OVC006
     FM012100 08005KT 6SM BR BKN012
     FM020300 17003KT 2SM -DZ OVC008
     FM020600 22002KT 1SM -DZ OVC004
     FM021500 30005KT 4SM -DZ OVC008=



000
FTUS42 KFFC 011541 AAA
TAFCSG
TAF AMD
KCSG 011541Z 0116/0212 08010KT 3SM BR OVC008
      TEMPO 0116/0118 1SM -DZ BR OVC003
     FM011900 08005KT 6SM BR BKN008
     FM020200 00000KT 2SM -DZ OVC004=



000
FTUS42 KFFC 011541 AAA
TAFCSG
TAF AMD
KCSG 011541Z 0116/0212 08010KT 3SM BR OVC008
      TEMPO 0116/0118 1SM -DZ BR OVC003
     FM011900 08005KT 6SM BR BKN008
     FM020200 00000KT 2SM -DZ OVC004=



000
FTUS42 KFFC 011515 AAB
TAFPDK
TAF AMD
KPDK 011515Z 0115/0212 08006KT 3SM -RADZ OVC008
      TEMPO 0115/0117 1SM -RADZ OVC004
     FM011700 08006KT 5SM -RADZ OVC008
     FM012100 08006KT 6SM BR BKN012
     FM020300 00000KT 2SM -DZ OVC008
     FM020600 00000KT 1SM -DZ OVC004=



000
FTUS42 KFFC 011401 AAA
TAFMCN
TAF AMD
KMCN 011401Z 0114/0212 08010KT 3SM BR OVC005
      TEMPO 0114/0116 1SM -DZ BR OVC003
     FM011600 08008KT 5SM -RADZ OVC004
     FM011900 08005KT 6SM BR BKN008
     FM020200 00000KT 2SM -DZ OVC004=



000
FTUS42 KFFC 011401 AAA
TAFMCN
TAF AMD
KMCN 011401Z 0114/0212 08010KT 3SM BR OVC005
      TEMPO 0114/0116 1SM -DZ BR OVC003
     FM011600 08008KT 5SM -RADZ OVC004
     FM011900 08005KT 6SM BR BKN008
     FM020200 00000KT 2SM -DZ OVC004=



000
FTUS42 KFFC 011400 AAB
TAFATL
TAF AMD
KATL 011400Z 0114/0218 08010KT 3SM -RADZ OVC007
      TEMPO 0114/0116 2SM -RADZ OVC004
     FM012100 08005KT 6SM BR BKN012
     FM020300 17003KT 2SM -DZ OVC008
     FM020600 22002KT 1SM -DZ OVC004
     FM021500 30005KT 4SM -DZ OVC008=



000
FTUS42 KFFC 011400 AAB
TAFATL
TAF AMD
KATL 011400Z 0114/0218 08010KT 3SM -RADZ OVC007
      TEMPO 0114/0116 2SM -RADZ OVC004
     FM012100 08005KT 6SM BR BKN012
     FM020300 17003KT 2SM -DZ OVC008
     FM020600 22002KT 1SM -DZ OVC004
     FM021500 30005KT 4SM -DZ OVC008=



000
FTUS42 KFFC 011316 AAA
TAFAHN
TAF AMD
KAHN 011316Z 0113/0212 08006KT 3SM -RADZ OVC006
      TEMPO 0113/0116 1SM -RADZ OVC004
     FM011600 08006KT 4SM -RADZ OVC004
     FM020300 00000KT 2SM -DZ OVC004=



000
FTUS42 KFFC 011313 AAA
TAFPDK
TAF AMD
KPDK 011313Z 0113/0212 08006KT 4SM -RADZ OVC008
      TEMPO 0113/0115 2SM -RADZ OVC005
     FM011500 08006KT 5SM -RADZ OVC008
     FM012100 08006KT 6SM BR BKN012
     FM020300 00000KT 2SM -DZ OVC008
     FM020600 00000KT 1SM -DZ OVC004=



000
FTUS42 KFFC 011313 AAA
TAFPDK
TAF AMD
KPDK 011313Z 0113/0212 08006KT 4SM -RADZ OVC008
      TEMPO 0113/0115 2SM -RADZ OVC005
     FM011500 08006KT 5SM -RADZ OVC008
     FM012100 08006KT 6SM BR BKN012
     FM020300 00000KT 2SM -DZ OVC008
     FM020600 00000KT 1SM -DZ OVC004=



000
FTUS42 KFFC 011312 AAA
TAFFTY
TAF AMD
KFTY 011312Z 0113/0212 08006KT 3SM -RADZ OVC008
      TEMPO 0113/0115 1SM -RADZ OVC005
     FM011500 08006KT 5SM -RADZ OVC008
     FM012100 08006KT 6SM BR BKN012
     FM020300 00000KT 2SM -DZ OVC008
     FM020600 00000KT 1SM -DZ OVC004=



000
FTUS42 KFFC 011312 AAA
TAFFTY
TAF AMD
KFTY 011312Z 0113/0212 08006KT 3SM -RADZ OVC008
      TEMPO 0113/0115 1SM -RADZ OVC005
     FM011500 08006KT 5SM -RADZ OVC008
     FM012100 08006KT 6SM BR BKN012
     FM020300 00000KT 2SM -DZ OVC008
     FM020600 00000KT 1SM -DZ OVC004=



000
FTUS42 KFFC 011309 AAA
TAFATL
TAF AMD
KATL 011309Z 0113/0218 08010KT 4SM -RADZ OVC007
      TEMPO 0113/0115 2SM -RADZ OVC004
     FM012100 08005KT 6SM BR BKN012
     FM020300 17003KT 2SM -DZ OVC008
     FM020600 22002KT 1SM -DZ OVC004
     FM021500 30005KT 4SM -DZ OVC008=



000
FTUS42 KFFC 011309 AAA
TAFATL
TAF AMD
KATL 011309Z 0113/0218 08010KT 4SM -RADZ OVC007
      TEMPO 0113/0115 2SM -RADZ OVC004
     FM012100 08005KT 6SM BR BKN012
     FM020300 17003KT 2SM -DZ OVC008
     FM020600 22002KT 1SM -DZ OVC004
     FM021500 30005KT 4SM -DZ OVC008=



000
FTUS42 KFFC 011122
TAFATL
TAF
KATL 011122Z 0112/0218 08010KT 5SM -RADZ OVC008
     FM012100 08005KT 6SM BR BKN012
     FM020300 17003KT 2SM -DZ OVC008
     FM020600 22002KT 1SM -DZ OVC004
     FM021500 30005KT 4SM -DZ OVC008=



000
FTUS42 KFFC 011122
TAFCSG
TAF
KCSG 011122Z 0112/0212 08010KT 4SM -RADZ OVC008
     FM011900 08005KT 6SM BR BKN008
     FM020200 00000KT 2SM -DZ OVC004=



000
FTUS42 KFFC 011122
TAFMCN
TAF
KMCN 011122Z 0112/0212 08010KT 4SM -RADZ OVC004
     FM011500 08008KT 5SM -RADZ OVC004
     FM011900 08005KT 6SM BR BKN008
     FM020200 00000KT 2SM -DZ OVC004=



000
FTUS42 KFFC 011122
TAFFTY
TAF
KFTY 011122Z 0112/0212 08006KT 5SM -RADZ OVC012
     FM011400 08006KT 5SM -RADZ OVC008
     FM012100 08006KT 6SM BR BKN012
     FM020300 00000KT 2SM -DZ OVC008
     FM020600 00000KT 1SM -DZ OVC004=



000
FTUS42 KFFC 011122
TAFRYY
TAF
KRYY 011122Z 0112/0212 08006KT 5SM -RADZ OVC012
     FM011400 08006KT 5SM -RADZ OVC008
     FM012100 08006KT 6SM BR BKN012
     FM020300 00000KT 2SM -DZ OVC008
     FM020600 00000KT 1SM -DZ OVC004=



000
FTUS42 KFFC 011122
TAFPDK
TAF
KPDK 011122Z 0112/0212 08006KT 5SM -RADZ OVC012
     FM011400 08006KT 5SM -RADZ OVC008
     FM012100 08006KT 6SM BR BKN012
     FM020300 00000KT 2SM -DZ OVC008
     FM020600 00000KT 1SM -DZ OVC004=



000
FTUS42 KFFC 011122
TAFAHN
TAF
KAHN 011122Z 0112/0212 08006KT 4SM -RADZ OVC008
     FM011500 08006KT 4SM -RADZ OVC004
     FM020300 00000KT 2SM -DZ OVC004=



000
FTUS42 KFFC 011122
TAFCSG
TAF
KCSG 011122Z 0112/0212 08010KT 4SM -RADZ OVC008
     FM011900 08005KT 6SM BR BKN008
     FM020200 00000KT 2SM -DZ OVC004=



000
FTUS42 KFFC 011122
TAFATL
TAF
KATL 011122Z 0112/0218 08010KT 5SM -RADZ OVC008
     FM012100 08005KT 6SM BR BKN012
     FM020300 17003KT 2SM -DZ OVC008
     FM020600 22002KT 1SM -DZ OVC004
     FM021500 30005KT 4SM -DZ OVC008=



000
FTUS42 KFFC 011122
TAFRYY
TAF
KRYY 011122Z 0112/0212 08006KT 5SM -RADZ OVC012
     FM011400 08006KT 5SM -RADZ OVC008
     FM012100 08006KT 6SM BR BKN012
     FM020300 00000KT 2SM -DZ OVC008
     FM020600 00000KT 1SM -DZ OVC004=



000
FTUS42 KFFC 011122
TAFFTY
TAF
KFTY 011122Z 0112/0212 08006KT 5SM -RADZ OVC012
     FM011400 08006KT 5SM -RADZ OVC008
     FM012100 08006KT 6SM BR BKN012
     FM020300 00000KT 2SM -DZ OVC008
     FM020600 00000KT 1SM -DZ OVC004=



000
FTUS42 KFFC 011122
TAFAHN
TAF
KAHN 011122Z 0112/0212 08006KT 4SM -RADZ OVC008
     FM011500 08006KT 4SM -RADZ OVC004
     FM020300 00000KT 2SM -DZ OVC004=



000
FTUS42 KFFC 011122
TAFPDK
TAF
KPDK 011122Z 0112/0212 08006KT 5SM -RADZ OVC012
     FM011400 08006KT 5SM -RADZ OVC008
     FM012100 08006KT 6SM BR BKN012
     FM020300 00000KT 2SM -DZ OVC008
     FM020600 00000KT 1SM -DZ OVC004=



000
FTUS42 KFFC 011122
TAFMCN
TAF
KMCN 011122Z 0112/0212 08010KT 4SM -RADZ OVC004
     FM011500 08008KT 5SM -RADZ OVC004
     FM011900 08005KT 6SM BR BKN008
     FM020200 00000KT 2SM -DZ OVC004=



000
FTUS42 KFFC 011019 AAD
TAFATL
TAF AMD
KATL 011019Z 0110/0212 08010KT 4SM -RADZ OVC008
      TEMPO 0111/0114 2SM -DZ OVC004
     FM011500 08008KT 4SM -RADZ OVC007
     FM012100 08005KT 6SM BR BKN012
     FM020300 17003KT 2SM -DZ OVC008
     FM020600 22002KT 1SM -DZ OVC004=



000
FTUS42 KFFC 010933 AAC
TAFATL
TAF AMD
KATL 010933Z 0110/0212 08010KT 4SM -RADZ OVC008
      TEMPO 0111/0114 2SM -DZ OVC004
     FM011500 08008KT 4SM -RADZ OVC007
     FM012100 08005KT 6SM BR BKN012
     FM020300 17003KT 2SM -DZ OVC008
     FM020600 22002KT 1SM -DZ OVC004=



000
FTUS42 KFFC 010743 AAB
TAFATL
TAF AMD
KATL 010743Z 0108/0212 09012KT 5SM -RADZ BKN008
     FM011000 08010KT 2SM -RADZ OVC004
     FM011500 08008KT 4SM -RADZ OVC007
     FM012100 08005KT 6SM BR BKN012
     FM020300 17003KT 2SM -DZ OVC008
     FM020600 22002KT 1SM -DZ OVC004=



000
FTUS42 KFFC 010714 AAA
TAFATL
TAF AMD
KATL 010714Z 0107/0212 09012KT 5SM -RADZ BKN008
     FM011000 08010KT 2SM -RADZ OVC004
     FM011500 08008KT 4SM -RADZ OVC007
     FM012100 08005KT 6SM BR BKN012
     FM020300 17003KT 2SM -DZ OVC008
     FM020600 22002KT 1SM -DZ OVC004=



000
FTUS42 KFFC 010714 AAA
TAFATL
TAF AMD
KATL 010714Z 0107/0212 09012KT 5SM -RADZ BKN008
     FM011000 08010KT 2SM -RADZ OVC004
     FM011500 08008KT 4SM -RADZ OVC007
     FM012100 08005KT 6SM BR BKN012
     FM020300 17003KT 2SM -DZ OVC008
     FM020600 22002KT 1SM -DZ OVC004=



    US Dept of Commerce
    National Oceanic and Atmospheric Administration
    National Weather Service
    1325 East West Highway
    Silver Spring, MD 20910
    Page Author: NWS Internet Services Team
Disclaimer
Information Quality
Credits
Glossary
Privacy Policy
Freedom of Information Act (FOIA)
About Us
Career Opportunities